Observation data for Boys Ranch on 01/12/2018      Previous  Date  Next       Current Mesonet Observations  Soil Data  Daily Summary Page  Observations in Plain Language
KBY1 120600Z 00000KT M08/M12 A3027 RMK A01 T10821123  RH  072%=      5-min Rain = 0
KBY1 120601Z 34000KT M08/M12 A3027 RMK A01 T10821122  RH  073%=      5-min Rain = 0
KBY1 120602Z 33001KT M08/M12 A3027 RMK A01 T10821121  RH  073%=      5-min Rain = 0
KBY1 120603Z 32000KT M08/M12 A3027 RMK A01 T10831123  RH  073%=      5-min Rain = 0
KBY1 120604Z 00000KT M08/M12 A3027 RMK A01 T10831123  RH  073%=      5-min Rain = 0
KBY1 120605Z 00000KT M08/M12 A3027 RMK A01 T10831124  RH  073%=      5-min Rain = 0
KBY1 120606Z 01000KT M08/M13 A3027 RMK A01 T10841125  RH  072%=      5-min Rain = 0
KBY1 120607Z 00001KT M09/M13 A3027 RMK A01 T10851126  RH  072%=      5-min Rain = 0
KBY1 120608Z 35000KT M09/M13 A3027 RMK A01 T10851126  RH  072%=      5-min Rain = 0
KBY1 120609Z 35000KT M09/M13 A3027 RMK A01 T10861127  RH  072%=      5-min Rain = 0
KBY1 120610Z 35000KT M09/M13 A3027 RMK A01 T10871128  RH  072%=      5-min Rain = 0
KBY1 120611Z 00000KT M09/M13 A3027 RMK A01 T10881129  RH  072%=      5-min Rain = 0
KBY1 120612Z 00000KT M09/M13 A3027 RMK A01 T10881127  RH  073%=      5-min Rain = 0
KBY1 120613Z 00000KT M09/M13 A3027 RMK A01 T10871125  RH  074%=      5-min Rain = 0
KBY1 120614Z 00000KT M09/M12 A3027 RMK A01 T10871124  RH  074%=      5-min Rain = 0
KBY1 120615Z 02000KT M09/M13 A3027 RMK A01 T10861125  RH  074%=      5-min Rain = 0
KBY1 120616Z 00000KT M09/M13 A3027 RMK A01 T10871126  RH  073%=      5-min Rain = 0
KBY1 120617Z 34000KT M09/M13 A3027 RMK A01 T10871127  RH  073%=      5-min Rain = 0
KBY1 120618Z 34000KT M09/M13 A3027 RMK A01 T10871126  RH  073%=      5-min Rain = 0
KBY1 120619Z 01000KT M09/M13 A3027 RMK A01 T10871126  RH  073%=      5-min Rain = 0
KBY1 120620Z 01000KT M09/M13 A3027 RMK A01 T10871126  RH  074%=      5-min Rain = 0
KBY1 120621Z 00000KT M09/M13 A3027 RMK A01 T10871125  RH  074%=      5-min Rain = 0
KBY1 120622Z 01000KT M09/M13 A3027 RMK A01 T10871125  RH  074%=      5-min Rain = 0
KBY1 120623Z 01000KT M09/M12 A3027 RMK A01 T10871123  RH  075%=      5-min Rain = 0
KBY1 120624Z 00000KT M09/M12 A3027 RMK A01 T10871123  RH  075%=      5-min Rain = 0
KBY1 120625Z 00000KT M09/M12 A3027 RMK A01 T10861124  RH  074%=      5-min Rain = 0
KBY1 120626Z 00000KT M09/M13 A3027 RMK A01 T10871126  RH  073%=      5-min Rain = 0
KBY1 120627Z 00000KT M09/M13 A3027 RMK A01 T10881130  RH  072%=      5-min Rain = 0
KBY1 120628Z 28000KT M09/M13 A3027 RMK A01 T10901131  RH  072%=      5-min Rain = 0
KBY1 120629Z 27000KT M09/M13 A3027 RMK A01 T10911130  RH  073%=      5-min Rain = 0
KBY1 120630Z 00000KT M09/M13 A3027 RMK A01 T10911128  RH  074%=      5-min Rain = 0
KBY1 120631Z 00000KT M09/M13 A3027 RMK A01 T10901126  RH  075%=      5-min Rain = 0
KBY1 120632Z 00000KT M09/M13 A3027 RMK A01 T10891126  RH  075%=      5-min Rain = 0
KBY1 120633Z 24000KT M09/M13 A3027 RMK A01 T10901127  RH  075%=      5-min Rain = 0
KBY1 120634Z 25001KT M09/M13 A3027 RMK A01 T10901126  RH  075%=      5-min Rain = 0
KBY1 120635Z 25000KT M09/M12 A3027 RMK A01 T10891124  RH  076%=      5-min Rain = 0
KBY1 120636Z 00000KT M09/M12 A3027 RMK A01 T10891123  RH  076%=      5-min Rain = 0
KBY1 120637Z 00000KT M09/M12 A3027 RMK A01 T10881122  RH  076%=      5-min Rain = 0
KBY1 120638Z 00000KT M09/M12 A3027 RMK A01 T10861119  RH  077%=      5-min Rain = 0
KBY1 120639Z 00000KT M09/M12 A3027 RMK A01 T10851118  RH  077%=      5-min Rain = 0
KBY1 120640Z 35000KT M08/M12 A3026 RMK A01 T10831117  RH  076%=      5-min Rain = 0
KBY1 120641Z 33001KT M08/M12 A3026 RMK A01 T10821118  RH  075%=      5-min Rain = 0
KBY1 120642Z 34001KT M08/M12 A3027 RMK A01 T10821120  RH  074%=      5-min Rain = 0
KBY1 120643Z 34001KT M08/M12 A3027 RMK A01 T10831122  RH  073%=      5-min Rain = 0
KBY1 120644Z 32000KT M08/M12 A3027 RMK A01 T10831122  RH  073%=      5-min Rain = 0
KBY1 120645Z 00000KT M08/M12 A3027 RMK A01 T10831122  RH  074%=      5-min Rain = 0
KBY1 120646Z 00000KT M08/M12 A3027 RMK A01 T10841122  RH  074%=      5-min Rain = 0
KBY1 120647Z 00000KT M08/M12 A3027 RMK A01 T10841122  RH  074%=      5-min Rain = 0
KBY1 120648Z 00000KT M08/M12 A3027 RMK A01 T10831120  RH  075%=      5-min Rain = 0
KBY1 120649Z 00000KT M08/M12 A3027 RMK A01 T10831120  RH  074%=      5-min Rain = 0
KBY1 120650Z 32000KT M08/M12 A3026 RMK A01 T10831121  RH  074%=      5-min Rain = 0
KBY1 120651Z 32000KT M08/M12 A3026 RMK A01 T10831122  RH  073%=      5-min Rain = 0
KBY1 120652Z 00000KT M08/M12 A3026 RMK A01 T10841123  RH  074%=      5-min Rain = 0
KBY1 120653Z 32000KT M08/M12 A3026 RMK A01 T10841122  RH  074%=      5-min Rain = 0
KBY1 120654Z 32001KT M09/M12 A3026 RMK A01 T10851123  RH  074%=      5-min Rain = 0
KBY1 120655Z 31001KT M09/M12 A3026 RMK A01 T10851124  RH  074%=      5-min Rain = 0
KBY1 120656Z 28001KT M09/M13 A3026 RMK A01 T10871127  RH  073%=      5-min Rain = 0
KBY1 120657Z 28001KT M09/M13 A3026 RMK A01 T10891128  RH  073%=      5-min Rain = 0
KBY1 120658Z 28001KT M09/M13 A3026 RMK A01 T10881125  RH  075%=      5-min Rain = 0
KBY1 120659Z 30001KT M09/M12 A3026 RMK A01 T10891124  RH  076%=      5-min Rain = 0
KBY1 120700Z 30001KT M09/M12 A3026 RMK A01 T10881122  RH  077%=      5-min Rain = 0
KBY1 120701Z 32001KT M09/M12 A3026 RMK A01 T10871120  RH  077%=      5-min Rain = 0
KBY1 120702Z 31001KT M09/M12 A3026 RMK A01 T10861119  RH  077%=      5-min Rain = 0
KBY1 120703Z 29001KT M09/M12 A3026 RMK A01 T10861119  RH  077%=      5-min Rain = 0
KBY1 120704Z 00000KT M09/M12 A3026 RMK A01 T10851118  RH  077%=      5-min Rain = 0
KBY1 120705Z 00000KT M08/M12 A3026 RMK A01 T10841118  RH  077%=      5-min Rain = 0
KBY1 120706Z 00000KT M08/M12 A3026 RMK A01 T10841119  RH  076%=      5-min Rain = 0
KBY1 120707Z 00000KT M08/M12 A3026 RMK A01 T10841119  RH  076%=      5-min Rain = 0
KBY1 120708Z 00000KT M08/M12 A3026 RMK A01 T10841120  RH  075%=      5-min Rain = 0
KBY1 120709Z 00000KT M09/M12 A3026 RMK A01 T10851120  RH  076%=      5-min Rain = 0
KBY1 120710Z 29000KT M08/M12 A3026 RMK A01 T10841119  RH  076%=      5-min Rain = 0
KBY1 120711Z 28001KT M08/M12 A3026 RMK A01 T10831117  RH  077%=      5-min Rain = 0
KBY1 120712Z 30000KT M08/M12 A3026 RMK A01 T10821116  RH  077%=      5-min Rain = 0
KBY1 120713Z 33001KT M08/M12 A3026 RMK A01 T10821117  RH  076%=      5-min Rain = 0
KBY1 120714Z 32001KT M08/M12 A3026 RMK A01 T10811117  RH  075%=      5-min Rain = 0
KBY1 120715Z 30001KT M08/M12 A3026 RMK A01 T10821119  RH  075%=      5-min Rain = 0
KBY1 120716Z 29001KT M08/M12 A3026 RMK A01 T10831119  RH  075%=      5-min Rain = 0
KBY1 120717Z 31001KT M08/M12 A3026 RMK A01 T10831119  RH  075%=      5-min Rain = 0
KBY1 120718Z 30002KT M08/M12 A3026 RMK A01 T10841119  RH  076%=      5-min Rain = 0
KBY1 120719Z 30001KT M08/M12 A3026 RMK A01 T10841119  RH  076%=      5-min Rain = 0
KBY1 120720Z 30002KT M09/M12 A3026 RMK A01 T10851120  RH  076%=      5-min Rain = 0
KBY1 120721Z 32002KT M09/M12 A3026 RMK A01 T10851120  RH  076%=      5-min Rain = 0
KBY1 120722Z 33003KT M09/M12 A3026 RMK A01 T10861121  RH  076%=      5-min Rain = 0
KBY1 120723Z 33004KT M09/M12 A3026 RMK A01 T10871122  RH  076%=      5-min Rain = 0
KBY1 120724Z 33004KT M09/M12 A3026 RMK A01 T10881121  RH  077%=      5-min Rain = 0
KBY1 120725Z 32003KT M09/M12 A3026 RMK A01 T10881121  RH  077%=      5-min Rain = 0
KBY1 120726Z 32003KT M09/M12 A3026 RMK A01 T10881121  RH  077%=      5-min Rain = 0
KBY1 120727Z 31002KT M09/M12 A3026 RMK A01 T10881120  RH  077%=      5-min Rain = 0
KBY1 120728Z 31002KT M09/M12 A3026 RMK A01 T10881120  RH  078%=      5-min Rain = 0
KBY1 120729Z 32004KT M09/M12 A3025 RMK A01 T10881120  RH  078%=      5-min Rain = 0
KBY1 120730Z 32004KT M09/M12 A3026 RMK A01 T10881120  RH  077%=      5-min Rain = 0
KBY1 120731Z 32005KT M09/M12 A3026 RMK A01 T10881121  RH  077%=      5-min Rain = 0
KBY1 120732Z 33005KT M09/M12 A3026 RMK A01 T10881121  RH  077%=      5-min Rain = 0
KBY1 120733Z 32004KT M09/M12 A3026 RMK A01 T10881120  RH  077%=      5-min Rain = 0
KBY1 120734Z 32005KT M09/M12 A3026 RMK A01 T10881120  RH  078%=      5-min Rain = 0
KBY1 120735Z 32004KT M09/M12 A3026 RMK A01 T10881119  RH  078%=      5-min Rain = 0
KBY1 120736Z 32004KT M09/M12 A3026 RMK A01 T10871119  RH  078%=      5-min Rain = 0
KBY1 120737Z 33004KT M09/M12 A3026 RMK A01 T10871118  RH  078%=      5-min Rain = 0
KBY1 120738Z 33003KT M09/M12 A3026 RMK A01 T10861118  RH  078%=      5-min Rain = 0
KBY1 120739Z 35000KT M09/M12 A3026 RMK A01 T10861119  RH  077%=      5-min Rain = 0
KBY1 120740Z 00000KT M09/M12 A3026 RMK A01 T10871119  RH  077%=      5-min Rain = 0
KBY1 120741Z 31000KT M09/M12 A3025 RMK A01 T10871120  RH  077%=      5-min Rain = 0
KBY1 120742Z 32000KT M09/M12 A3025 RMK A01 T10871119  RH  077%=      5-min Rain = 0
KBY1 120743Z 34001KT M09/M12 A3025 RMK A01 T10871118  RH  078%=      5-min Rain = 0
KBY1 120744Z 00000KT M09/M12 A3025 RMK A01 T10861118  RH  077%=      5-min Rain = 0
KBY1 120745Z 00000KT M09/M12 A3025 RMK A01 T10861120  RH  076%=      5-min Rain = 0
KBY1 120746Z 00000KT M09/M12 A3025 RMK A01 T10871122  RH  076%=      5-min Rain = 0
KBY1 120747Z 00000KT M09/M12 A3025 RMK A01 T10881123  RH  076%=      5-min Rain = 0
KBY1 120748Z 00000KT M09/M12 A3025 RMK A01 T10891124  RH  076%=      5-min Rain = 0
KBY1 120749Z 22000KT M09/M12 A3025 RMK A01 T10901124  RH  076%=      5-min Rain = 0
KBY1 120750Z 23001KT M09/M12 A3025 RMK A01 T10911124  RH  077%=      5-min Rain = 0
KBY1 120751Z 27000KT M09/M12 A3025 RMK A01 T10911123  RH  077%=      5-min Rain = 0
KBY1 120752Z 00000KT M09/M12 A3025 RMK A01 T10911123  RH  078%=      5-min Rain = 0
KBY1 120753Z 00000KT M09/M12 A3025 RMK A01 T10911122  RH  078%=      5-min Rain = 0
KBY1 120754Z 00000KT M09/M12 A3025 RMK A01 T10911123  RH  078%=      5-min Rain = 0
KBY1 120755Z 00000KT M09/M13 A3025 RMK A01 T10921126  RH  077%=      5-min Rain = 0
KBY1 120756Z 00000KT M09/M13 A3025 RMK A01 T10941127  RH  076%=      5-min Rain = 0
KBY1 120757Z 00000KT M09/M13 A3025 RMK A01 T10941128  RH  076%=      5-min Rain = 0
KBY1 120758Z 00000KT M10/M13 A3025 RMK A01 T10951128  RH  077%=      5-min Rain = 0
KBY1 120759Z 00000KT M10/M13 A3025 RMK A01 T10961128  RH  077%=      5-min Rain = 0
KBY1 120800Z 00000KT M10/M13 A3024 RMK A01 T10961127  RH  078%=      5-min Rain = 0
KBY1 120801Z 00000KT M10/M13 A3024 RMK A01 T10961127  RH  078%=      5-min Rain = 0
KBY1 120802Z 00000KT M10/M13 A3024 RMK A01 T10961126  RH  079%=      5-min Rain = 0
KBY1 120803Z 00000KT M10/M13 A3024 RMK A01 T10961126  RH  079%=      5-min Rain = 0
KBY1 120804Z 00000KT M10/M13 A3024 RMK A01 T10961126  RH  079%=      5-min Rain = 0
KBY1 120805Z 00000KT M10/M13 A3024 RMK A01 T10971127  RH  079%=      5-min Rain = 0
KBY1 120806Z 00000KT M10/M13 A3024 RMK A01 T10961126  RH  079%=      5-min Rain = 0
KBY1 120807Z 00000KT M10/M13 A3024 RMK A01 T10961126  RH  079%=      5-min Rain = 0
KBY1 120808Z 00000KT M10/M13 A3024 RMK A01 T10971128  RH  078%=      5-min Rain = 0
KBY1 120809Z 00000KT M10/M13 A3024 RMK A01 T10981128  RH  078%=      5-min Rain = 0
KBY1 120810Z 00000KT M10/M13 A3024 RMK A01 T10981127  RH  079%=      5-min Rain = 0
KBY1 120811Z 00000KT M10/M13 A3023 RMK A01 T10981126  RH  080%=      5-min Rain = 0
KBY1 120812Z 00000KT M10/M12 A3023 RMK A01 T10971124  RH  080%=      5-min Rain = 0
KBY1 120813Z 00000KT M10/M12 A3023 RMK A01 T10961123  RH  081%=      5-min Rain = 0
KBY1 120814Z 00000KT M10/M12 A3023 RMK A01 T10951122  RH  081%=      5-min Rain = 0
KBY1 120815Z 00000KT M10/M12 A3023 RMK A01 T10951123  RH  080%=      5-min Rain = 0
KBY1 120816Z 00000KT M10/M12 A3023 RMK A01 T10951124  RH  079%=      5-min Rain = 0
KBY1 120817Z 00000KT M10/M13 A3023 RMK A01 T10951125  RH  078%=      5-min Rain = 0
KBY1 120818Z 00000KT M10/M13 A3023 RMK A01 T10961128  RH  077%=      5-min Rain = 0
KBY1 120819Z 00000KT M10/M13 A3023 RMK A01 T10961128  RH  078%=      5-min Rain = 0
KBY1 120820Z 00000KT M10/M13 A3023 RMK A01 T10951125  RH  079%=      5-min Rain = 0
KBY1 120821Z 00000KT M10/M13 A3023 RMK A01 T10951125  RH  079%=      5-min Rain = 0
KBY1 120822Z 00000KT M09/M12 A3023 RMK A01 T10941124  RH  079%=      5-min Rain = 0
KBY1 120823Z 00000KT M09/M12 A3023 RMK A01 T10941123  RH  079%=      5-min Rain = 0
KBY1 120824Z 00000KT M09/M12 A3023 RMK A01 T10931122  RH  079%=      5-min Rain = 0
KBY1 120825Z 00000KT M09/M12 A3023 RMK A01 T10921120  RH  080%=      5-min Rain = 0
KBY1 120826Z 00000KT M09/M12 A3023 RMK A01 T10921120  RH  080%=      5-min Rain = 0
KBY1 120827Z 00000KT M09/M12 A3023 RMK A01 T10921121  RH  079%=      5-min Rain = 0
KBY1 120828Z 00000KT M09/M12 A3023 RMK A01 T10911122  RH  078%=      5-min Rain = 0
KBY1 120829Z 00000KT M09/M13 A3023 RMK A01 T10921125  RH  077%=      5-min Rain = 0
KBY1 120830Z 00000KT M09/M13 A3023 RMK A01 T10941129  RH  075%=      5-min Rain = 0
KBY1 120831Z 00000KT M10/M13 A3022 RMK A01 T10951130  RH  075%=      5-min Rain = 0
KBY1 120832Z 00000KT M10/M13 A3022 RMK A01 T10961131  RH  076%=      5-min Rain = 0
KBY1 120833Z 00000KT M10/M13 A3022 RMK A01 T10971132  RH  076%=      5-min Rain = 0
KBY1 120834Z 00000KT M10/M13 A3022 RMK A01 T10971130  RH  077%=      5-min Rain = 0
KBY1 120835Z 00000KT M10/M13 A3022 RMK A01 T10971128  RH  078%=      5-min Rain = 0
KBY1 120836Z 00000KT M10/M13 A3023 RMK A01 T10981129  RH  078%=      5-min Rain = 0
KBY1 120837Z 00000KT M10/M13 A3023 RMK A01 T10981130  RH  078%=      5-min Rain = 0
KBY1 120838Z 00000KT M10/M13 A3023 RMK A01 T10991131  RH  077%=      5-min Rain = 0
KBY1 120839Z 00000KT M10/M13 A3023 RMK A01 T11001131  RH  078%=      5-min Rain = 0
KBY1 120840Z 00000KT M10/M13 A3023 RMK A01 T11001131  RH  078%=      5-min Rain = 0
KBY1 120841Z 00000KT M10/M13 A3023 RMK A01 T11001131  RH  078%=      5-min Rain = 0
KBY1 120842Z 00000KT M10/M13 A3022 RMK A01 T11001131  RH  078%=      5-min Rain = 0
KBY1 120843Z 00000KT M10/M13 A3022 RMK A01 T11011131  RH  079%=      5-min Rain = 0
KBY1 120844Z 00000KT M10/M13 A3022 RMK A01 T11001130  RH  079%=      5-min Rain = 0
KBY1 120845Z 00000KT M10/M13 A3022 RMK A01 T11011129  RH  080%=      5-min Rain = 0
KBY1 120846Z 00000KT M10/M13 A3022 RMK A01 T11011128  RH  080%=      5-min Rain = 0
KBY1 120847Z 00000KT M10/M13 A3022 RMK A01 T11011128  RH  080%=      5-min Rain = 0
KBY1 120848Z 00000KT M10/M13 A3023 RMK A01 T11011129  RH  080%=      5-min Rain = 0
KBY1 120849Z 00000KT M10/M13 A3022 RMK A01 T11001128  RH  080%=      5-min Rain = 0
KBY1 120850Z 00000KT M10/M13 A3022 RMK A01 T11011129  RH  080%=      5-min Rain = 0
KBY1 120851Z 00000KT M10/M13 A3022 RMK A01 T11011128  RH  080%=      5-min Rain = 0
KBY1 120852Z 00000KT M10/M13 A3022 RMK A01 T11011129  RH  080%=      5-min Rain = 0
KBY1 120853Z 00000KT M10/M13 A3022 RMK A01 T11011128  RH  080%=      5-min Rain = 0
KBY1 120854Z 00000KT M10/M13 A3022 RMK A01 T11001128  RH  080%=      5-min Rain = 0
KBY1 120855Z 00000KT M10/M13 A3022 RMK A01 T11011128  RH  080%=      5-min Rain = 0
KBY1 120856Z 00000KT M10/M13 A3022 RMK A01 T11011127  RH  081%=      5-min Rain = 0
KBY1 120857Z 00000KT M10/M13 A3022 RMK A01 T11011127  RH  081%=      5-min Rain = 0
KBY1 120858Z 00000KT M10/M13 A3022 RMK A01 T11011128  RH  081%=      5-min Rain = 0
KBY1 120859Z 00000KT M10/M13 A3022 RMK A01 T11011128  RH  080%=      5-min Rain = 0
KBY1 120900Z 00000KT M10/M13 A3023 RMK A01 T11011130  RH  080%=      5-min Rain = 0
KBY1 120901Z 00000KT M10/M13 A3023 RMK A01 T11021131  RH  079%=      5-min Rain = 0
KBY1 120902Z 00000KT M10/M13 A3023 RMK A01 T11021132  RH  079%=      5-min Rain = 0
KBY1 120903Z 00000KT M10/M13 A3023 RMK A01 T11031132  RH  079%=      5-min Rain = 0
KBY1 120904Z 00000KT M10/M13 A3022 RMK A01 T11031132  RH  080%=      5-min Rain = 0
KBY1 120905Z 00000KT M10/M13 A3022 RMK A01 T11031132  RH  080%=      5-min Rain = 0
KBY1 120906Z 00000KT M10/M13 A3022 RMK A01 T11041132  RH  080%=      5-min Rain = 0
KBY1 120907Z 00000KT M10/M13 A3022 RMK A01 T11041133  RH  079%=      5-min Rain = 0
KBY1 120908Z 00000KT M10/M13 A3022 RMK A01 T11041133  RH  079%=      5-min Rain = 0
KBY1 120909Z 00000KT M11/M13 A3022 RMK A01 T11051134  RH  079%=      5-min Rain = 0
KBY1 120910Z 00000KT M11/M13 A3022 RMK A01 T11051134  RH  079%=      5-min Rain = 0
KBY1 120911Z 00000KT M11/M13 A3022 RMK A01 T11051134  RH  079%=      5-min Rain = 0
KBY1 120912Z 00000KT M11/M14 A3022 RMK A01 T11061135  RH  079%=      5-min Rain = 0
KBY1 120913Z 00000KT M11/M14 A3022 RMK A01 T11061136  RH  079%=      5-min Rain = 0
KBY1 120914Z 00000KT M11/M14 A3022 RMK A01 T11061136  RH  079%=      5-min Rain = 0
KBY1 120915Z 00000KT M11/M14 A3022 RMK A01 T11071136  RH  079%=      5-min Rain = 0
KBY1 120916Z 00000KT M11/M14 A3022 RMK A01 T11071135  RH  080%=      5-min Rain = 0
KBY1 120917Z 00000KT M11/M13 A3022 RMK A01 T11061134  RH  080%=      5-min Rain = 0
KBY1 120918Z 00000KT M11/M14 A3022 RMK A01 T11071135  RH  080%=      5-min Rain = 0
KBY1 120919Z 34000KT M11/M13 A3023 RMK A01 T11071134  RH  080%=      5-min Rain = 0
KBY1 120920Z 34001KT M11/M13 A3023 RMK A01 T11051131  RH  081%=      5-min Rain = 0
KBY1 120921Z 33001KT M11/M13 A3023 RMK A01 T11051130  RH  082%=      5-min Rain = 0
KBY1 120922Z 32002KT M10/M13 A3023 RMK A01 T11041130  RH  081%=      5-min Rain = 0
KBY1 120923Z 33002KT M10/M13 A3023 RMK A01 T11031128  RH  082%=      5-min Rain = 0
KBY1 120924Z 33001KT M10/M13 A3023 RMK A01 T11021126  RH  082%=      5-min Rain = 0
KBY1 120925Z 33000KT M10/M12 A3023 RMK A01 T11001124  RH  082%=      5-min Rain = 0
KBY1 120926Z 33000KT M10/M13 A3023 RMK A01 T11001125  RH  082%=      5-min Rain = 0
KBY1 120927Z 33000KT M10/M13 A3023 RMK A01 T11001129  RH  080%=      5-min Rain = 0
KBY1 120928Z 00000KT M10/M13 A3023 RMK A01 T11031134  RH  078%=      5-min Rain = 0
KBY1 120929Z 22000KT M11/M14 A3023 RMK A01 T11051138  RH  077%=      5-min Rain = 0
KBY1 120930Z 00000KT M11/M14 A3022 RMK A01 T11071140  RH  077%=      5-min Rain = 0
KBY1 120931Z 00000KT M11/M14 A3022 RMK A01 T11081137  RH  079%=      5-min Rain = 0
KBY1 120932Z 25000KT M11/M14 A3022 RMK A01 T11081135  RH  080%=      5-min Rain = 0
KBY1 120933Z 25001KT M11/M13 A3022 RMK A01 T11071132  RH  081%=      5-min Rain = 0
KBY1 120934Z 27001KT M11/M13 A3022 RMK A01 T11051129  RH  082%=      5-min Rain = 0
KBY1 120935Z 27000KT M10/M13 A3022 RMK A01 T11041128  RH  082%=      5-min Rain = 0
KBY1 120936Z 27000KT M10/M13 A3022 RMK A01 T11031128  RH  082%=      5-min Rain = 0
KBY1 120937Z 31000KT M10/M13 A3022 RMK A01 T11021127  RH  082%=      5-min Rain = 0
KBY1 120938Z 31001KT M10/M13 A3023 RMK A01 T11011127  RH  082%=      5-min Rain = 0
KBY1 120939Z 32000KT M10/M13 A3023 RMK A01 T11031130  RH  081%=      5-min Rain = 0
KBY1 120940Z 34001KT M10/M13 A3023 RMK A01 T11031130  RH  080%=      5-min Rain = 0
KBY1 120941Z 35001KT M10/M13 A3023 RMK A01 T11031130  RH  081%=      5-min Rain = 0
KBY1 120942Z 01001KT M10/M13 A3023 RMK A01 T11031130  RH  081%=      5-min Rain = 0
KBY1 120943Z 02001KT M10/M13 A3023 RMK A01 T11021128  RH  081%=      5-min Rain = 0
KBY1 120944Z 01001KT M10/M13 A3023 RMK A01 T11011127  RH  081%=      5-min Rain = 0
KBY1 120945Z 01000KT M10/M13 A3023 RMK A01 T10991125  RH  081%=      5-min Rain = 0
KBY1 120946Z 32001KT M10/M13 A3023 RMK A01 T10991125  RH  081%=      5-min Rain = 0
KBY1 120947Z 31000KT M10/M13 A3023 RMK A01 T10991126  RH  081%=      5-min Rain = 0
KBY1 120948Z 00000KT M10/M13 A3023 RMK A01 T10991127  RH  080%=      5-min Rain = 0
KBY1 120949Z 31000KT M10/M13 A3023 RMK A01 T10991127  RH  080%=      5-min Rain = 0
KBY1 120950Z 30001KT M10/M13 A3023 RMK A01 T10991128  RH  079%=      5-min Rain = 0
KBY1 120951Z 30001KT M10/M13 A3023 RMK A01 T11001129  RH  079%=      5-min Rain = 0
KBY1 120952Z 30001KT M10/M13 A3023 RMK A01 T11011130  RH  079%=      5-min Rain = 0
KBY1 120953Z 30001KT M10/M13 A3023 RMK A01 T11011130  RH  080%=      5-min Rain = 0
KBY1 120954Z 29001KT M10/M13 A3023 RMK A01 T11021130  RH  080%=      5-min Rain = 0
KBY1 120955Z 29001KT M10/M13 A3023 RMK A01 T11021130  RH  080%=      5-min Rain = 0
KBY1 120956Z 32000KT M10/M13 A3023 RMK A01 T11031130  RH  080%=      5-min Rain = 0
KBY1 120957Z 35001KT M10/M13 A3023 RMK A01 T11031130  RH  080%=      5-min Rain = 0
KBY1 120958Z 01001KT M10/M13 A3023 RMK A01 T11021128  RH  081%=      5-min Rain = 0
KBY1 120959Z 01001KT M10/M13 A3023 RMK A01 T11021128  RH  082%=      5-min Rain = 0
KBY1 121000Z 35000KT M10/M13 A3023 RMK A01 T11021128  RH  081%=      5-min Rain = 0
KBY1 121001Z 34000KT M10/M13 A3023 RMK A01 T11021129  RH  080%=      5-min Rain = 0
KBY1 121002Z 35000KT M10/M13 A3023 RMK A01 T11031131  RH  080%=      5-min Rain = 0
KBY1 121003Z 00000KT M10/M13 A3023 RMK A01 T11031132  RH  080%=      5-min Rain = 0
KBY1 121004Z 00000KT M10/M13 A3023 RMK A01 T11041132  RH  080%=      5-min Rain = 0
KBY1 121005Z 00000KT M10/M13 A3023 RMK A01 T11041132  RH  080%=      5-min Rain = 0
KBY1 121006Z 00000KT M10/M13 A3023 RMK A01 T11041132  RH  080%=      5-min Rain = 0
KBY1 121007Z 00000KT M11/M13 A3023 RMK A01 T11051134  RH  080%=      5-min Rain = 0
KBY1 121008Z 00000KT M11/M13 A3023 RMK A01 T11061134  RH  080%=      5-min Rain = 0
KBY1 121009Z 00000KT M11/M13 A3023 RMK A01 T11061134  RH  080%=      5-min Rain = 0
KBY1 121010Z 00000KT M11/M14 A3023 RMK A01 T11071135  RH  080%=      5-min Rain = 0
KBY1 121011Z 00000KT M11/M13 A3023 RMK A01 T11071134  RH  080%=      5-min Rain = 0
KBY1 121012Z 00000KT M11/M13 A3023 RMK A01 T11071134  RH  081%=      5-min Rain = 0
KBY1 121013Z 00000KT M11/M13 A3023 RMK A01 T11071134  RH  081%=      5-min Rain = 0
KBY1 121014Z 00000KT M11/M13 A3023 RMK A01 T11071134  RH  081%=      5-min Rain = 0
KBY1 121015Z 00000KT M11/M13 A3023 RMK A01 T11081134  RH  081%=      5-min Rain = 0
KBY1 121016Z 00000KT M11/M13 A3023 RMK A01 T11081134  RH  081%=      5-min Rain = 0
KBY1 121017Z 00000KT M11/M13 A3023 RMK A01 T11081133  RH  082%=      5-min Rain = 0
KBY1 121018Z 00000KT M11/M13 A3023 RMK A01 T11081133  RH  082%=      5-min Rain = 0
KBY1 121019Z 00000KT M11/M13 A3023 RMK A01 T11071131  RH  082%=      5-min Rain = 0
KBY1 121020Z 00000KT M11/M13 A3023 RMK A01 T11061130  RH  083%=      5-min Rain = 0
KBY1 121021Z 00000KT M11/M13 A3023 RMK A01 T11061128  RH  083%=      5-min Rain = 0
KBY1 121022Z 00000KT M11/M13 A3023 RMK A01 T11051127  RH  084%=      5-min Rain = 0
KBY1 121023Z 00000KT M11/M13 A3023 RMK A01 T11051127  RH  083%=      5-min Rain = 0
KBY1 121024Z 00000KT M11/M13 A3022 RMK A01 T11051128  RH  083%=      5-min Rain = 0
KBY1 121025Z 00000KT M11/M13 A3022 RMK A01 T11051129  RH  082%=      5-min Rain = 0
KBY1 121026Z 00000KT M11/M13 A3022 RMK A01 T11051130  RH  082%=      5-min Rain = 0
KBY1 121027Z 00000KT M10/M13 A3022 RMK A01 T11041129  RH  082%=      5-min Rain = 0
KBY1 121028Z 00000KT M11/M13 A3022 RMK A01 T11051130  RH  081%=      5-min Rain = 0
KBY1 121029Z 00000KT M11/M13 A3022 RMK A01 T11051132  RH  081%=      5-min Rain = 0
KBY1 121030Z 00000KT M11/M13 A3022 RMK A01 T11061133  RH  081%=      5-min Rain = 0
KBY1 121031Z 00000KT M11/M13 A3022 RMK A01 T11071133  RH  081%=      5-min Rain = 0
KBY1 121032Z 00000KT M11/M13 A3022 RMK A01 T11061131  RH  082%=      5-min Rain = 0
KBY1 121033Z 00000KT M11/M13 A3022 RMK A01 T11051130  RH  082%=      5-min Rain = 0
KBY1 121034Z 00000KT M11/M13 A3022 RMK A01 T11051129  RH  082%=      5-min Rain = 0
KBY1 121035Z 01001KT M11/M13 A3022 RMK A01 T11051131  RH  082%=      5-min Rain = 0
KBY1 121036Z 01001KT M11/M13 A3022 RMK A01 T11061132  RH  081%=      5-min Rain = 0
KBY1 121037Z 01001KT M11/M13 A3022 RMK A01 T11061132  RH  082%=      5-min Rain = 0
KBY1 121038Z 01001KT M11/M13 A3021 RMK A01 T11051129  RH  082%=      5-min Rain = 0
KBY1 121039Z 01000KT M10/M13 A3021 RMK A01 T11031127  RH  083%=      5-min Rain = 0
KBY1 121040Z 01000KT M10/M13 A3021 RMK A01 T11031127  RH  082%=      5-min Rain = 0
KBY1 121041Z 01000KT M10/M13 A3021 RMK A01 T11031128  RH  082%=      5-min Rain = 0
KBY1 121042Z 00000KT M10/M13 A3021 RMK A01 T11031129  RH  081%=      5-min Rain = 0
KBY1 121043Z 00000KT M10/M13 A3021 RMK A01 T11041130  RH  081%=      5-min Rain = 0
KBY1 121044Z 01000KT M11/M13 A3021 RMK A01 T11051132  RH  080%=      5-min Rain = 0
KBY1 121045Z 03001KT M11/M13 A3022 RMK A01 T11061134  RH  080%=      5-min Rain = 0
KBY1 121046Z 04001KT M11/M13 A3022 RMK A01 T11071134  RH  080%=      5-min Rain = 0
KBY1 121047Z 04001KT M11/M13 A3022 RMK A01 T11071134  RH  081%=      5-min Rain = 0
KBY1 121048Z 04001KT M11/M13 A3022 RMK A01 T11081134  RH  081%=      5-min Rain = 0
KBY1 121049Z 04001KT M11/M14 A3022 RMK A01 T11081135  RH  081%=      5-min Rain = 0
KBY1 121050Z 04000KT M11/M14 A3022 RMK A01 T11091135  RH  081%=      5-min Rain = 0
KBY1 121051Z 04000KT M11/M13 A3022 RMK A01 T11091134  RH  082%=      5-min Rain = 0
KBY1 121052Z 00000KT M11/M13 A3022 RMK A01 T11091133  RH  082%=      5-min Rain = 0
KBY1 121053Z 00000KT M11/M13 A3022 RMK A01 T11091134  RH  082%=      5-min Rain = 0
KBY1 121054Z 00000KT M11/M14 A3022 RMK A01 T11101135  RH  082%=      5-min Rain = 0
KBY1 121055Z 00000KT M11/M14 A3022 RMK A01 T11101135  RH  082%=      5-min Rain = 0
KBY1 121056Z 00000KT M11/M14 A3022 RMK A01 T11111135  RH  082%=      5-min Rain = 0
KBY1 121057Z 00000KT M11/M14 A3022 RMK A01 T11111136  RH  082%=      5-min Rain = 0
KBY1 121058Z 23000KT M11/M14 A3022 RMK A01 T11121137  RH  082%=      5-min Rain = 0
KBY1 121059Z 00000KT M11/M14 A3022 RMK A01 T11111135  RH  083%=      5-min Rain = 0
KBY1 121100Z 00000KT M11/M13 A3022 RMK A01 T11101133  RH  084%=      5-min Rain = 0
KBY1 121101Z 30000KT M11/M13 A3022 RMK A01 T11101131  RH  084%=      5-min Rain = 0
KBY1 121102Z 30001KT M11/M13 A3022 RMK A01 T11091131  RH  084%=      5-min Rain = 0
KBY1 121103Z 30001KT M11/M13 A3022 RMK A01 T11091131  RH  084%=      5-min Rain = 0
KBY1 121104Z 31001KT M11/M13 A3023 RMK A01 T11091130  RH  084%=      5-min Rain = 0
KBY1 121105Z 31002KT M11/M13 A3023 RMK A01 T11081129  RH  084%=      5-min Rain = 0
KBY1 121106Z 30002KT M11/M13 A3023 RMK A01 T11081129  RH  084%=      5-min Rain = 0
KBY1 121107Z 31003KT M11/M13 A3023 RMK A01 T11071129  RH  084%=      5-min Rain = 0
KBY1 121108Z 32003KT M11/M13 A3023 RMK A01 T11071130  RH  083%=      5-min Rain = 0
KBY1 121109Z 33003KT M11/M13 A3023 RMK A01 T11071130  RH  083%=      5-min Rain = 0
KBY1 121110Z 32002KT M11/M13 A3023 RMK A01 T11071130  RH  083%=      5-min Rain = 0
KBY1 121111Z 30002KT M11/M13 A3022 RMK A01 T11071130  RH  083%=      5-min Rain = 0
KBY1 121112Z 31002KT M11/M13 A3022 RMK A01 T11071130  RH  083%=      5-min Rain = 0
KBY1 121113Z 31003KT M11/M13 A3022 RMK A01 T11081130  RH  083%=      5-min Rain = 0
KBY1 121114Z 30002KT M11/M13 A3022 RMK A01 T11081131  RH  083%=      5-min Rain = 0
KBY1 121115Z 30003KT M11/M13 A3022 RMK A01 T11081131  RH  083%=      5-min Rain = 0
KBY1 121116Z 30003KT M11/M13 A3022 RMK A01 T11091132  RH  083%=      5-min Rain = 0
KBY1 121117Z 29002KT M11/M13 A3022 RMK A01 T11091131  RH  084%=      5-min Rain = 0
KBY1 121118Z 29002KT M11/M13 A3022 RMK A01 T11091132  RH  084%=      5-min Rain = 0
KBY1 121119Z 28001KT M11/M13 A3022 RMK A01 T11101132  RH  084%=      5-min Rain = 0
KBY1 121120Z 30000KT M11/M13 A3022 RMK A01 T11101132  RH  084%=      5-min Rain = 0
KBY1 121121Z 31001KT M11/M13 A3022 RMK A01 T11101132  RH  084%=      5-min Rain = 0
KBY1 121122Z 30001KT M11/M13 A3021 RMK A01 T11101131  RH  084%=      5-min Rain = 0
KBY1 121123Z 30000KT M11/M13 A3021 RMK A01 T11101131  RH  084%=      5-min Rain = 0
KBY1 121124Z 00000KT M11/M13 A3021 RMK A01 T11101131  RH  084%=      5-min Rain = 0
KBY1 121125Z 34000KT M11/M13 A3021 RMK A01 T11091131  RH  084%=      5-min Rain = 0
KBY1 121126Z 35000KT M11/M13 A3021 RMK A01 T11101132  RH  084%=      5-min Rain = 0
KBY1 121127Z 34001KT M11/M13 A3021 RMK A01 T11101132  RH  084%=      5-min Rain = 0
KBY1 121128Z 35001KT M11/M13 A3021 RMK A01 T11101132  RH  084%=      5-min Rain = 0
KBY1 121129Z 35001KT M11/M13 A3021 RMK A01 T11091131  RH  084%=      5-min Rain = 0
KBY1 121130Z 00001KT M11/M13 A302 RMK A01 T11091131  RH  084%=      5-min Rain = 0
KBY1 121131Z 01000KT M11/M13 A302 RMK A01 T11091132  RH  084%=      5-min Rain = 0
KBY1 121132Z 12000KT M11/M13 A302 RMK A01 T11091132  RH  083%=      5-min Rain = 0
KBY1 121133Z 15000KT M11/M13 A302 RMK A01 T11101133  RH  083%=      5-min Rain = 0
KBY1 121134Z 00000KT M11/M13 A302 RMK A01 T11111134  RH  083%=      5-min Rain = 0
KBY1 121135Z 00000KT M11/M14 A302 RMK A01 T11111135  RH  083%=      5-min Rain = 0
KBY1 121136Z 00000KT M11/M14 A302 RMK A01 T11131136  RH  083%=      5-min Rain = 0
KBY1 121137Z 00000KT M11/M14 A302 RMK A01 T11131137  RH  083%=      5-min Rain = 0
KBY1 121138Z 00000KT M11/M14 A302 RMK A01 T11141138  RH  083%=      5-min Rain = 0
KBY1 121139Z 00000KT M12/M14 A302 RMK A01 T11151138  RH  083%=      5-min Rain = 0
KBY1 121140Z 00000KT M12/M14 A302 RMK A01 T11151137  RH  084%=      5-min Rain = 0
KBY1 121141Z 32001KT M12/M14 A302 RMK A01 T11151137  RH  084%=      5-min Rain = 0
KBY1 121142Z 31001KT M12/M14 A302 RMK A01 T11151136  RH  084%=      5-min Rain = 0
KBY1 121143Z 31002KT M12/M14 A302 RMK A01 T11151135  RH  085%=      5-min Rain = 0
KBY1 121144Z 32002KT M11/M13 A3021 RMK A01 T11141134  RH  085%=      5-min Rain = 0
KBY1 121145Z 30001KT M11/M13 A3021 RMK A01 T11131133  RH  085%=      5-min Rain = 0
KBY1 121146Z 31002KT M11/M13 A3021 RMK A01 T11141134  RH  085%=      5-min Rain = 0
KBY1 121147Z 32002KT M11/M13 A3021 RMK A01 T11131134  RH  085%=      5-min Rain = 0
KBY1 121148Z 34002KT M11/M14 A3021 RMK A01 T11141135  RH  084%=      5-min Rain = 0
KBY1 121149Z 36001KT M11/M14 A3021 RMK A01 T11131135  RH  084%=      5-min Rain = 0
KBY1 121150Z 34000KT M11/M14 A3021 RMK A01 T11131135  RH  084%=      5-min Rain = 0
KBY1 121151Z 34001KT M11/M14 A3021 RMK A01 T11131135  RH  084%=      5-min Rain = 0
KBY1 121152Z 34001KT M11/M13 A3021 RMK A01 T11131134  RH  085%=      5-min Rain = 0
KBY1 121153Z 33002KT M11/M13 A3021 RMK A01 T11131133  RH  085%=      5-min Rain = 0
KBY1 121154Z 33001KT M11/M13 A3021 RMK A01 T11121133  RH  085%=      5-min Rain = 0
KBY1 121155Z 33001KT M11/M13 A3021 RMK A01 T11121133  RH  084%=      5-min Rain = 0
KBY1 121156Z 32001KT M11/M13 A3021 RMK A01 T11111132  RH  084%=      5-min Rain = 0
KBY1 121157Z 33001KT M11/M13 A3021 RMK A01 T11111132  RH  084%=      5-min Rain = 0
KBY1 121158Z 32000KT M11/M13 A3021 RMK A01 T11111133  RH  084%=      5-min Rain = 0
KBY1 121159Z 33001KT M11/M13 A302 RMK A01 T11111133  RH  084%=      5-min Rain = 0
KBY1 121200Z 35001KT M11/M14 A302 RMK A01 T11121135  RH  083%=      5-min Rain = 0
KBY1 121201Z 00000KT M11/M14 A3021 RMK A01 T11131138  RH  082%=      5-min Rain = 0
KBY1 121202Z 04001KT M12/M14 A3021 RMK A01 T11151140  RH  082%=      5-min Rain = 0
KBY1 121203Z 05001KT M12/M14 A3021 RMK A01 T11161141  RH  082%=      5-min Rain = 0
KBY1 121204Z 02000KT M12/M14 A3021 RMK A01 T11171140  RH  083%=      5-min Rain = 0
KBY1 121205Z 00002KT M12/M14 A3021 RMK A01 T11171140  RH  083%=      5-min Rain = 0
KBY1 121206Z 02000KT M12/M14 A3022 RMK A01 T11171140  RH  084%=      5-min Rain = 0
KBY1 121207Z 33000KT M12/M14 A3022 RMK A01 T11161138  RH  084%=      5-min Rain = 0
KBY1 121208Z 32001KT M12/M14 A3022 RMK A01 T11151136  RH  085%=      5-min Rain = 0
KBY1 121209Z 35002KT M11/M13 A3022 RMK A01 T11131132  RH  086%=      5-min Rain = 0
KBY1 121210Z 34001KT M11/M13 A3022 RMK A01 T11111130  RH  086%=      5-min Rain = 0
KBY1 121211Z 34001KT M11/M13 A3022 RMK A01 T11101130  RH  086%=      5-min Rain = 0
KBY1 121212Z 00000KT M11/M13 A3022 RMK A01 T11111132  RH  085%=      5-min Rain = 0
KBY1 121213Z 00000KT M11/M13 A3021 RMK A01 T11111133  RH  084%=      5-min Rain = 0
KBY1 121214Z 00000KT M11/M13 A3021 RMK A01 T11111133  RH  084%=      5-min Rain = 0
KBY1 121215Z 24000KT M11/M13 A3022 RMK A01 T11111133  RH  084%=      5-min Rain = 0
KBY1 121216Z 23001KT M11/M14 A3022 RMK A01 T11121135  RH  083%=      5-min Rain = 0
KBY1 121217Z 25001KT M11/M14 A3022 RMK A01 T11141139  RH  082%=      5-min Rain = 0
KBY1 121218Z 25002KT M11/M14 A3022 RMK A01 T11141138  RH  083%=      5-min Rain = 0
KBY1 121219Z 24002KT M11/M14 A3022 RMK A01 T11141137  RH  083%=      5-min Rain = 0
KBY1 121220Z 25002KT M12/M14 A3022 RMK A01 T11151137  RH  083%=      5-min Rain = 0
KBY1 121221Z 26001KT M12/M14 A3022 RMK A01 T11151138  RH  083%=      5-min Rain = 0
KBY1 121222Z 27001KT M12/M14 A3022 RMK A01 T11151137  RH  084%=      5-min Rain = 0
KBY1 121223Z 27000KT M12/M14 A3022 RMK A01 T11151137  RH  084%=      5-min Rain = 0
KBY1 121224Z 00000KT M11/M14 A3022 RMK A01 T11141135  RH  085%=      5-min Rain = 0
KBY1 121225Z 00000KT M11/M14 A3022 RMK A01 T11141135  RH  085%=      5-min Rain = 0
KBY1 121226Z 22000KT M11/M14 A3022 RMK A01 T11141135  RH  085%=      5-min Rain = 0
KBY1 121227Z 22000KT M12/M14 A3022 RMK A01 T11151136  RH  084%=      5-min Rain = 0
KBY1 121228Z 22000KT M12/M14 A3022 RMK A01 T11161139  RH  083%=      5-min Rain = 0
KBY1 121229Z 22001KT M12/M14 A3022 RMK A01 T11181141  RH  083%=      5-min Rain = 0
KBY1 121230Z 23001KT M12/M14 A3021 RMK A01 T11201144  RH  082%=      5-min Rain = 0
KBY1 121231Z 24001KT M12/M15 A3021 RMK A01 T11221146  RH  082%=      5-min Rain = 0
KBY1 121232Z 24001KT M12/M15 A3021 RMK A01 T11231146  RH  083%=      5-min Rain = 0
KBY1 121233Z 24000KT M12/M15 A3021 RMK A01 T11231145  RH  084%=      5-min Rain = 0
KBY1 121234Z 24001KT M12/M14 A3021 RMK A01 T11231143  RH  085%=      5-min Rain = 0
KBY1 121235Z 24001KT M12/M14 A3021 RMK A01 T11231143  RH  086%=      5-min Rain = 0
KBY1 121236Z 24001KT M12/M14 A3021 RMK A01 T11231142  RH  086%=      5-min Rain = 0
KBY1 121237Z 24000KT M12/M14 A3021 RMK A01 T11231142  RH  086%=      5-min Rain = 0
KBY1 121238Z 00000KT M12/M14 A3021 RMK A01 T11231142  RH  086%=      5-min Rain = 0
KBY1 121239Z 26000KT M12/M14 A3021 RMK A01 T11231142  RH  086%=      5-min Rain = 0
KBY1 121240Z 28001KT M12/M14 A3021 RMK A01 T11231142  RH  086%=      5-min Rain = 0
KBY1 121241Z 29001KT M12/M14 A3021 RMK A01 T11221140  RH  086%=      5-min Rain = 0
KBY1 121242Z 29001KT M12/M14 A3021 RMK A01 T11221139  RH  087%=      5-min Rain = 0
KBY1 121243Z 31001KT M12/M14 A3021 RMK A01 T11191136  RH  088%=      5-min Rain = 0
KBY1 121244Z 31001KT M12/M13 A3021 RMK A01 T11181134  RH  088%=      5-min Rain = 0
KBY1 121245Z 34001KT M12/M13 A3021 RMK A01 T11161132  RH  088%=      5-min Rain = 0
KBY1 121246Z 35001KT M12/M13 A3021 RMK A01 T11151132  RH  088%=      5-min Rain = 0
KBY1 121247Z 35002KT M12/M13 A3021 RMK A01 T11151132  RH  087%=      5-min Rain = 0
KBY1 121248Z 35002KT M11/M13 A3021 RMK A01 T11141132  RH  087%=      5-min Rain = 0
KBY1 121249Z 00001KT M11/M13 A3021 RMK A01 T11131132  RH  086%=      5-min Rain = 0
KBY1 121250Z 36001KT M11/M13 A3021 RMK A01 T11131132  RH  086%=      5-min Rain = 0
KBY1 121251Z 34000KT M11/M13 A3021 RMK A01 T11131132  RH  086%=      5-min Rain = 0
KBY1 121252Z 34000KT M11/M13 A3021 RMK A01 T11131133  RH  085%=      5-min Rain = 0
KBY1 121253Z 00000KT M11/M13 A3021 RMK A01 T11131133  RH  085%=      5-min Rain = 0
KBY1 121254Z 00000KT M11/M13 A3021 RMK A01 T11131134  RH  084%=      5-min Rain = 0
KBY1 121255Z 00000KT M11/M14 A3021 RMK A01 T11141136  RH  084%=      5-min Rain = 0
KBY1 121256Z 21000KT M12/M14 A3021 RMK A01 T11161141  RH  082%=      5-min Rain = 0
KBY1 121257Z 21001KT M12/M15 A3021 RMK A01 T11201146  RH  081%=      5-min Rain = 0
KBY1 121258Z 21002KT M12/M15 A3021 RMK A01 T11231149  RH  081%=      5-min Rain = 0
KBY1 121259Z 23001KT M12/M15 A3021 RMK A01 T11241149  RH  082%=      5-min Rain = 0
KBY1 121300Z 25000KT M13/M15 A3021 RMK A01 T11251149  RH  083%=      5-min Rain = 0
KBY1 121301Z 00000KT M13/M15 A3021 RMK A01 T11251148  RH  083%=      5-min Rain = 0
KBY1 121302Z 03000KT M13/M15 A3021 RMK A01 T11261148  RH  084%=      5-min Rain = 0
KBY1 121303Z 03001KT M13/M15 A3021 RMK A01 T11271148  RH  084%=      5-min Rain = 0
KBY1 121304Z 04001KT M13/M15 A3021 RMK A01 T11271147  RH  085%=      5-min Rain = 0
KBY1 121305Z 04001KT M13/M15 A3021 RMK A01 T11271147  RH  085%=      5-min Rain = 0
KBY1 121306Z 04002KT M13/M15 A3021 RMK A01 T11271146  RH  086%=      5-min Rain = 0
KBY1 121307Z 05002KT M13/M14 A3021 RMK A01 T11261144  RH  086%=      5-min Rain = 0
KBY1 121308Z 05002KT M12/M14 A3021 RMK A01 T11241142  RH  087%=      5-min Rain = 0
KBY1 121309Z 05001KT M12/M14 A3021 RMK A01 T11241142  RH  086%=      5-min Rain = 0
KBY1 121310Z 03001KT M12/M14 A3021 RMK A01 T11241143  RH  086%=      5-min Rain = 0
KBY1 121311Z 01001KT M12/M14 A3021 RMK A01 T11241143  RH  086%=      5-min Rain = 0
KBY1 121312Z 35001KT M12/M14 A3021 RMK A01 T11231143  RH  086%=      5-min Rain = 0
KBY1 121313Z 34001KT M12/M14 A3021 RMK A01 T11231142  RH  086%=      5-min Rain = 0
KBY1 121314Z 01001KT M12/M14 A3021 RMK A01 T11221140  RH  086%=      5-min Rain = 0
KBY1 121315Z 02001KT M12/M14 A3021 RMK A01 T11201138  RH  087%=      5-min Rain = 0
KBY1 121316Z 04001KT M12/M14 A3021 RMK A01 T11191136  RH  087%=      5-min Rain = 0
KBY1 121317Z 04001KT M12/M14 A3021 RMK A01 T11181135  RH  087%=      5-min Rain = 0
KBY1 121318Z 03000KT M12/M14 A3021 RMK A01 T11181136  RH  087%=      5-min Rain = 0
KBY1 121319Z 31000KT M12/M14 A3021 RMK A01 T11171136  RH  086%=      5-min Rain = 0
KBY1 121320Z 31000KT M12/M14 A3021 RMK A01 T11171136  RH  086%=      5-min Rain = 0
KBY1 121321Z 31001KT M12/M14 A3021 RMK A01 T11171136  RH  086%=      5-min Rain = 0
KBY1 121322Z 32001KT M12/M14 A3021 RMK A01 T11171136  RH  086%=      5-min Rain = 0
KBY1 121323Z 33001KT M12/M14 A3021 RMK A01 T11171136  RH  086%=      5-min Rain = 0
KBY1 121324Z 02000KT M12/M14 A3021 RMK A01 T11161135  RH  086%=      5-min Rain = 0
KBY1 121325Z 03001KT M12/M14 A3021 RMK A01 T11161135  RH  086%=      5-min Rain = 0
KBY1 121326Z 05001KT M12/M14 A3021 RMK A01 T11161135  RH  086%=      5-min Rain = 0
KBY1 121327Z 05001KT M12/M14 A3021 RMK A01 T11161135  RH  085%=      5-min Rain = 0
KBY1 121328Z 04001KT M12/M14 A3021 RMK A01 T11161136  RH  085%=      5-min Rain = 0
KBY1 121329Z 07001KT M12/M14 A3021 RMK A01 T11161137  RH  085%=      5-min Rain = 0
KBY1 121330Z 07001KT M12/M14 A3021 RMK A01 T11181139  RH  084%=      5-min Rain = 0
KBY1 121331Z 08001KT M12/M14 A3021 RMK A01 T11191141  RH  083%=      5-min Rain = 0
KBY1 121332Z 09001KT M12/M14 A3021 RMK A01 T11201144  RH  083%=      5-min Rain = 0
KBY1 121333Z 10000KT M12/M15 A3021 RMK A01 T11221146  RH  082%=      5-min Rain = 0
KBY1 121334Z 00000KT M12/M15 A3021 RMK A01 T11221146  RH  082%=      5-min Rain = 0
KBY1 121335Z 00000KT M12/M15 A3021 RMK A01 T11231147  RH  083%=      5-min Rain = 0
KBY1 121336Z 00000KT M12/M15 A3021 RMK A01 T11231145  RH  083%=      5-min Rain = 0
KBY1 121337Z 00000KT M12/M15 A3021 RMK A01 T11231145  RH  084%=      5-min Rain = 0
KBY1 121338Z 17000KT M12/M14 A3021 RMK A01 T11231143  RH  085%=      5-min Rain = 0
KBY1 121339Z 14000KT M12/M14 A3021 RMK A01 T11221142  RH  085%=      5-min Rain = 0
KBY1 121340Z 09002KT M12/M14 A3021 RMK A01 T11221141  RH  086%=      5-min Rain = 0
KBY1 121341Z 07002KT M12/M14 A3021 RMK A01 T11221141  RH  086%=      5-min Rain = 0
KBY1 121342Z 06002KT M12/M14 A3021 RMK A01 T11221141  RH  086%=      5-min Rain = 0
KBY1 121343Z 05003KT M12/M14 A3021 RMK A01 T11221142  RH  085%=      5-min Rain = 0
KBY1 121344Z 05003KT M12/M14 A3021 RMK A01 T11231143  RH  085%=      5-min Rain = 0
KBY1 121345Z 04002KT M12/M14 A3022 RMK A01 T11221142  RH  085%=      5-min Rain = 0
KBY1 121346Z 02002KT M12/M14 A3022 RMK A01 T11221142  RH  085%=      5-min Rain = 0
KBY1 121347Z 03002KT M12/M14 A3021 RMK A01 T11221142  RH  086%=      5-min Rain = 0
KBY1 121348Z 05001KT M12/M14 A3021 RMK A01 T11221140  RH  086%=      5-min Rain = 0
KBY1 121349Z 06000KT M12/M14 A3021 RMK A01 T11211140  RH  086%=      5-min Rain = 0
KBY1 121350Z 06000KT M12/M14 A3021 RMK A01 T11211139  RH  087%=      5-min Rain = 0
KBY1 121351Z 25001KT M12/M14 A3021 RMK A01 T11211139  RH  086%=      5-min Rain = 0
KBY1 121352Z 23002KT M12/M14 A302 RMK A01 T11211140  RH  086%=      5-min Rain = 0
KBY1 121353Z 22002KT M12/M14 A302 RMK A01 T11211140  RH  086%=      5-min Rain = 0
KBY1 121354Z 21002KT M12/M14 A302 RMK A01 T11221141  RH  086%=      5-min Rain = 0
KBY1 121355Z 20001KT M12/M14 A302 RMK A01 T11221141  RH  086%=      5-min Rain = 0
KBY1 121356Z 13001KT M12/M14 A302 RMK A01 T11221141  RH  086%=      5-min Rain = 0
KBY1 121357Z 12000KT M12/M14 A3021 RMK A01 T11221141  RH  086%=      5-min Rain = 0
KBY1 121358Z 00000KT M12/M14 A3021 RMK A01 T11221141  RH  086%=      5-min Rain = 0
KBY1 121359Z 07001KT M12/M14 A3021 RMK A01 T11211140  RH  086%=      5-min Rain = 0
KBY1 121400Z 07001KT M12/M14 A3021 RMK A01 T11201138  RH  086%=      5-min Rain = 0
KBY1 121401Z 07001KT M12/M14 A3021 RMK A01 T11201139  RH  086%=      5-min Rain = 0
KBY1 121402Z 07000KT M12/M14 A3021 RMK A01 T11201138  RH  086%=      5-min Rain = 0
KBY1 121403Z 00000KT M12/M14 A3021 RMK A01 T11191137  RH  086%=      5-min Rain = 0
KBY1 121404Z 00000KT M12/M14 A3021 RMK A01 T11181136  RH  087%=      5-min Rain = 0
KBY1 121405Z 00000KT M12/M14 A3021 RMK A01 T11171135  RH  087%=      5-min Rain = 0
KBY1 121406Z 00000KT M12/M14 A3021 RMK A01 T11171135  RH  087%=      5-min Rain = 0
KBY1 121407Z 00000KT M12/M14 A3021 RMK A01 T11161135  RH  086%=      5-min Rain = 0
KBY1 121408Z 03000KT M12/M14 A3021 RMK A01 T11161135  RH  086%=      5-min Rain = 0
KBY1 121409Z 03001KT M11/M13 A3022 RMK A01 T11141134  RH  086%=      5-min Rain = 0
KBY1 121410Z 05002KT M11/M13 A3022 RMK A01 T11131133  RH  086%=      5-min Rain = 0
KBY1 121411Z 06003KT M11/M13 A3022 RMK A01 T11131134  RH  085%=      5-min Rain = 0
KBY1 121412Z 07003KT M11/M13 A3022 RMK A01 T11131134  RH  084%=      5-min Rain = 0
KBY1 121413Z 06003KT M11/M14 A3022 RMK A01 T11131135  RH  084%=      5-min Rain = 0
KBY1 121414Z 05002KT M11/M14 A3022 RMK A01 T11131136  RH  083%=      5-min Rain = 0
KBY1 121415Z 06002KT M11/M13 A3022 RMK A01 T11111134  RH  083%=      5-min Rain = 0
KBY1 121416Z 06001KT M11/M13 A3022 RMK A01 T11101133  RH  083%=      5-min Rain = 0
KBY1 121417Z 06000KT M11/M13 A3021 RMK A01 T11091132  RH  083%=      5-min Rain = 0
KBY1 121418Z 24000KT M11/M13 A3021 RMK A01 T11091134  RH  082%=      5-min Rain = 0
KBY1 121419Z 22001KT M11/M14 A3021 RMK A01 T11101135  RH  082%=      5-min Rain = 0
KBY1 121420Z 21002KT M11/M14 A3021 RMK A01 T11101136  RH  082%=      5-min Rain = 0
KBY1 121421Z 21002KT M11/M14 A3021 RMK A01 T11111136  RH  082%=      5-min Rain = 0
KBY1 121422Z 22002KT M11/M14 A3021 RMK A01 T11101135  RH  082%=      5-min Rain = 0
KBY1 121423Z 23002KT M11/M14 A3021 RMK A01 T11111135  RH  082%=      5-min Rain = 0
KBY1 121424Z 23001KT M11/M13 A3021 RMK A01 T11101134  RH  082%=      5-min Rain = 0
KBY1 121425Z 23000KT M11/M13 A3021 RMK A01 T11091133  RH  082%=      5-min Rain = 0
KBY1 121426Z 00000KT M11/M13 A3021 RMK A01 T11081132  RH  082%=      5-min Rain = 0
KBY1 121427Z 00000KT M11/M13 A3021 RMK A01 T11051130  RH  082%=      5-min Rain = 0
KBY1 121428Z 09001KT M10/M13 A3022 RMK A01 T11041130  RH  082%=      5-min Rain = 0
KBY1 121429Z 08001KT M10/M13 A3021 RMK A01 T11041131  RH  080%=      5-min Rain = 0
KBY1 121430Z 10001KT M10/M13 A3021 RMK A01 T11031131  RH  080%=      5-min Rain = 0
KBY1 121431Z 12000KT M10/M13 A3021 RMK A01 T11031131  RH  080%=      5-min Rain = 0
KBY1 121432Z 17000KT M10/M13 A3021 RMK A01 T11011129  RH  080%=      5-min Rain = 0
KBY1 121433Z 20000KT M10/M13 A3021 RMK A01 T11001130  RH  079%=      5-min Rain = 0
KBY1 121434Z 21001KT M10/M13 A302 RMK A01 T11001130  RH  079%=      5-min Rain = 0
KBY1 121435Z 20001KT M10/M13 A302 RMK A01 T11001130  RH  079%=      5-min Rain = 0
KBY1 121436Z 20002KT M10/M13 A302 RMK A01 T11011129  RH  080%=      5-min Rain = 0
KBY1 121437Z 20001KT M10/M13 A302 RMK A01 T11011129  RH  080%=      5-min Rain = 0
KBY1 121438Z 19001KT M10/M13 A302 RMK A01 T11011128  RH  080%=      5-min Rain = 0
KBY1 121439Z 19002KT M10/M13 A302 RMK A01 T11001127  RH  081%=      5-min Rain = 0
KBY1 121440Z 19000KT M10/M13 A302 RMK A01 T10991126  RH  080%=      5-min Rain = 0
KBY1 121441Z 16001KT M10/M13 A302 RMK A01 T10981126  RH  080%=      5-min Rain = 0
KBY1 121442Z 15000KT M10/M13 A302 RMK A01 T10961125  RH  080%=      5-min Rain = 0
KBY1 121443Z 08000KT M09/M12 A302 RMK A01 T10941124  RH  079%=      5-min Rain = 0
KBY1 121444Z 09001KT M09/M13 A302 RMK A01 T10941125  RH  078%=      5-min Rain = 0
KBY1 121445Z 10001KT M09/M13 A302 RMK A01 T10931125  RH  077%=      5-min Rain = 0
KBY1 121446Z 08001KT M09/M13 A302 RMK A01 T10921125  RH  077%=      5-min Rain = 0
KBY1 121447Z 06000KT M09/M12 A302 RMK A01 T10911124  RH  077%=      5-min Rain = 0
KBY1 121448Z 06001KT M09/M12 A302 RMK A01 T10911124  RH  077%=      5-min Rain = 0
KBY1 121449Z 07001KT M09/M12 A302 RMK A01 T10891124  RH  076%=      5-min Rain = 0
KBY1 121450Z 06001KT M09/M12 A302 RMK A01 T10891124  RH  076%=      5-min Rain = 0
KBY1 121451Z 36000KT M09/M12 A302 RMK A01 T10881123  RH  076%=      5-min Rain = 0
KBY1 121452Z 03001KT M09/M12 A302 RMK A01 T10871123  RH  075%=      5-min Rain = 0
KBY1 121453Z 03001KT M09/M12 A302 RMK A01 T10881124  RH  075%=      5-min Rain = 0
KBY1 121454Z 06002KT M09/M12 A302 RMK A01 T10881124  RH  075%=      5-min Rain = 0
KBY1 121455Z 07002KT M09/M12 A302 RMK A01 T10881124  RH  075%=      5-min Rain = 0
KBY1 121456Z 08002KT M09/M12 A302 RMK A01 T10881123  RH  076%=      5-min Rain = 0
KBY1 121457Z 08003KT M09/M12 A302 RMK A01 T10881123  RH  076%=      5-min Rain = 0
KBY1 121458Z 07003KT M09/M12 A302 RMK A01 T10881122  RH  076%=      5-min Rain = 0
KBY1 121459Z 07002KT M09/M12 A302 RMK A01 T10871121  RH  077%=      5-min Rain = 0
KBY1 121500Z 07002KT M09/M12 A302 RMK A01 T10881122  RH  076%=      5-min Rain = 0
KBY1 121501Z 07002KT M09/M12 A302 RMK A01 T10871121  RH  076%=      5-min Rain = 0
KBY1 121502Z 05002KT M09/M12 A302 RMK A01 T10871122  RH  076%=      5-min Rain = 0
KBY1 121503Z 05001KT M09/M12 A302 RMK A01 T10871122  RH  075%=      5-min Rain = 0
KBY1 121504Z 06001KT M09/M12 A302 RMK A01 T10871123  RH  075%=      5-min Rain = 0
KBY1 121505Z 07001KT M09/M12 A302 RMK A01 T10871123  RH  075%=      5-min Rain = 0
KBY1 121506Z 07001KT M09/M12 A302 RMK A01 T10861122  RH  075%=      5-min Rain = 0
KBY1 121507Z 07002KT M09/M12 A302 RMK A01 T10851121  RH  075%=      5-min Rain = 0
KBY1 121508Z 07002KT M08/M12 A302 RMK A01 T10841121  RH  075%=      5-min Rain = 0
KBY1 121509Z 08002KT M08/M12 A302 RMK A01 T10831120  RH  075%=      5-min Rain = 0
KBY1 121510Z 08002KT M08/M12 A302 RMK A01 T10821120  RH  074%=      5-min Rain = 0
KBY1 121511Z 08002KT M08/M12 A302 RMK A01 T10811120  RH  074%=      5-min Rain = 0
KBY1 121512Z 09002KT M08/M12 A302 RMK A01 T10801118  RH  074%=      5-min Rain = 0
KBY1 121513Z 08002KT M08/M12 A302 RMK A01 T10801119  RH  073%=      5-min Rain = 0
KBY1 121514Z 07002KT M08/M12 A302 RMK A01 T10781118  RH  073%=      5-min Rain = 0
KBY1 121515Z 08002KT M08/M12 A302 RMK A01 T10771118  RH  073%=      5-min Rain = 0
KBY1 121516Z 08001KT M08/M12 A302 RMK A01 T10771118  RH  072%=      5-min Rain = 0
KBY1 121517Z 09001KT M08/M12 A302 RMK A01 T10761117  RH  072%=      5-min Rain = 0
KBY1 121518Z 08001KT M07/M12 A302 RMK A01 T10741116  RH  072%=      5-min Rain = 0
KBY1 121519Z 08002KT M07/M12 A302 RMK A01 T10721115  RH  072%=      5-min Rain = 0
KBY1 121520Z 07003KT M07/M12 A302 RMK A01 T10721116  RH  071%=      5-min Rain = 0
KBY1 121521Z 06003KT M07/M12 A302 RMK A01 T10711115  RH  071%=      5-min Rain = 0
KBY1 121522Z 07003KT M07/M11 A302 RMK A01 T10701114  RH  071%=      5-min Rain = 0
KBY1 121523Z 07004KT M07/M11 A302 RMK A01 T10691113  RH  071%=      5-min Rain = 0
KBY1 121524Z 06004KT M07/M11 A302 RMK A01 T10681113  RH  071%=      5-min Rain = 0
KBY1 121525Z 07004KT M07/M11 A302 RMK A01 T10671111  RH  070%=      5-min Rain = 0
KBY1 121526Z 07003KT M07/M11 A302 RMK A01 T10661112  RH  070%=      5-min Rain = 0
KBY1 121527Z 09003KT M07/M11 A302 RMK A01 T10661112  RH  070%=      5-min Rain = 0
KBY1 121528Z 09003KT M06/M11 A302 RMK A01 T10641111  RH  069%=      5-min Rain = 0
KBY1 121529Z 10002KT M06/M11 A302 RMK A01 T10641112  RH  069%=      5-min Rain = 0
KBY1 121530Z 10003KT M06/M11 A302 RMK A01 T10631112  RH  069%=      5-min Rain = 0
KBY1 121531Z 09003KT M06/M11 A302 RMK A01 T10621112  RH  068%=      5-min Rain = 0
KBY1 121532Z 11002KT M06/M11 A302 RMK A01 T10611110  RH  068%=      5-min Rain = 0
KBY1 121533Z 10002KT M06/M11 A302 RMK A01 T10581108  RH  068%=      5-min Rain = 0
KBY1 121534Z 10002KT M06/M11 A302 RMK A01 T10571107  RH  067%=      5-min Rain = 0
KBY1 121535Z 09002KT M06/M11 A302 RMK A01 T10551108  RH  067%=      5-min Rain = 0
KBY1 121536Z 08003KT M05/M11 A302 RMK A01 T10541107  RH  066%=      5-min Rain = 0
KBY1 121537Z 07002KT M05/M11 A302 RMK A01 T10531107  RH  066%=      5-min Rain = 0
KBY1 121538Z 07003KT M05/M10 A302 RMK A01 T10511104  RH  066%=      5-min Rain = 0
KBY1 121539Z 09003KT M05/M10 A302 RMK A01 T10491104  RH  065%=      5-min Rain = 0
KBY1 121540Z 10003KT M05/M11 A302 RMK A01 T10491105  RH  065%=      5-min Rain = 0
KBY1 121541Z 09003KT M05/M11 A302 RMK A01 T10481105  RH  064%=      5-min Rain = 0
KBY1 121542Z 09003KT M05/M11 A302 RMK A01 T10461105  RH  064%=      5-min Rain = 0
KBY1 121543Z 09002KT M05/M11 A302 RMK A01 T10451105  RH  063%=      5-min Rain = 0
KBY1 121544Z 10002KT M04/M10 A302 RMK A01 T10431104  RH  063%=      5-min Rain = 0
KBY1 121545Z 10003KT M04/M10 A302 RMK A01 T10421104  RH  062%=      5-min Rain = 0
KBY1 121546Z 09003KT M04/M10 A302 RMK A01 T10411104  RH  062%=      5-min Rain = 0
KBY1 121547Z 09001KT M04/M10 A302 RMK A01 T10401103  RH  061%=      5-min Rain = 0
KBY1 121548Z 10002KT M04/M10 A302 RMK A01 T10371103  RH  060%=      5-min Rain = 0
KBY1 121549Z 12002KT M04/M10 A302 RMK A01 T10351101  RH  060%=      5-min Rain = 0
KBY1 121550Z 09002KT M03/M10 A302 RMK A01 T10331100  RH  060%=      5-min Rain = 0
KBY1 121551Z 09002KT M03/M10 A302 RMK A01 T10321101  RH  059%=      5-min Rain = 0
KBY1 121552Z 12004KT M03/M10 A302 RMK A01 T10321101  RH  059%=      5-min Rain = 0
KBY1 121553Z 10004KT M03/M10 A302 RMK A01 T10301100  RH  058%=      5-min Rain = 0
KBY1 121554Z 09003KT M03/M10 A302 RMK A01 T10281100  RH  058%=      5-min Rain = 0
KBY1 121555Z 09003KT M03/M10 A302 RMK A01 T10271099  RH  058%=      5-min Rain = 0
KBY1 121556Z 10003KT M03/M10 A302 RMK A01 T10271101  RH  057%=      5-min Rain = 0
KBY1 121557Z 10003KT M03/M10 A302 RMK A01 T10271101  RH  057%=      5-min Rain = 0
KBY1 121558Z 10002KT M02/M10 A302 RMK A01 T10241099  RH  057%=      5-min Rain = 0
KBY1 121559Z 10002KT M02/M10 A302 RMK A01 T10221098  RH  056%=      5-min Rain = 0
KBY1 121600Z 10003KT M02/M10 A3019 RMK A01 T10201098  RH  055%=      5-min Rain = 0
KBY1 121601Z 09002KT M02/M10 A3019 RMK A01 T10191099  RH  054%=      5-min Rain = 0
KBY1 121602Z 08002KT M02/M10 A3019 RMK A01 T10181098  RH  054%=      5-min Rain = 0
KBY1 121603Z 09002KT M02/M10 A3019 RMK A01 T10161098  RH  054%=      5-min Rain = 0
KBY1 121604Z 08002KT M02/M10 A3019 RMK A01 T10151099  RH  053%=      5-min Rain = 0
KBY1 121605Z 12002KT M01/M10 A3019 RMK A01 T10131097  RH  053%=      5-min Rain = 0
KBY1 121606Z 13003KT M01/M10 A3019 RMK A01 T10101097  RH  052%=      5-min Rain = 0
KBY1 121607Z 13004KT M01/M10 A3019 RMK A01 T10071096  RH  051%=      5-min Rain = 0
KBY1 121608Z 14005KT M00/M10 A3019 RMK A01 T10041097  RH  050%=      5-min Rain = 0
KBY1 121609Z 14004KT M00/M10 A3019 RMK A01 T10031098  RH  049%=      5-min Rain = 0
KBY1 121610Z 13004KT M00/M10 A3019 RMK A01 T10021097  RH  048%=      5-min Rain = 0
KBY1 121611Z 14005KT 00/10 A3019 RMK A01 T00000-96  RH  048%=      5-min Rain = 0
KBY1 121612Z 13005KT 00/M10 A3019 RMK A01 T00021097  RH  047%=      5-min Rain = 0
KBY1 121613Z 14006KT 00/M10 A3019 RMK A01 T00041097  RH  047%=      5-min Rain = 0
KBY1 121614Z 14004KT 01/M10 A3019 RMK A01 T00051098  RH  046%=      5-min Rain = 0
KBY1 121615Z 14004KT 01/M10 A3019 RMK A01 T00071095  RH  046%=      5-min Rain = 0
KBY1 121616Z 15005KT 01/M09 A3018 RMK A01 T00111094  RH  046%=      5-min Rain = 0
KBY1 121617Z 15003KT 01/M10 A3018 RMK A01 T00141095  RH  044%=      5-min Rain = 0
KBY1 121618Z 18005KT 02/M10 A3018 RMK A01 T00161095  RH  043%=      5-min Rain = 0
KBY1 121619Z 17004KT 02/M10 A3018 RMK A01 T00201095  RH  042%=      5-min Rain = 0
KBY1 121620Z 19004KT 03/M09 A3018 RMK A01 T00251094  RH  041%=      5-min Rain = 0
KBY1 121621Z 18007KT 03/M09 A3018 RMK A01 T00281094  RH  040%=      5-min Rain = 0
KBY1 121622Z 18009KT 03/M09 A3018 RMK A01 T00331093  RH  039%=      5-min Rain = 0
KBY1 121623Z 18010KT 04/M09 A3018 RMK A01 T00361094  RH  038%=      5-min Rain = 0
KBY1 121624Z 19010KT 04/M09 A3018 RMK A01 T00381094  RH  037%=      5-min Rain = 0
KBY1 121625Z 21011KT 04/M10 A3018 RMK A01 T00391095  RH  037%=      5-min Rain = 0
KBY1 121626Z 20011KT 04/M10 A3018 RMK A01 T00391096  RH  037%=      5-min Rain = 0
KBY1 121627Z 18007KT 04/M10 A3018 RMK A01 T00381096  RH  037%=      5-min Rain = 0
KBY1 121628Z 19007KT 04/M09 A3018 RMK A01 T00391094  RH  037%=      5-min Rain = 0
KBY1 121629Z 18008KT 04/M09 A3018 RMK A01 T00421093  RH  037%=      5-min Rain = 0
KBY1 121630Z 19008KT 04/M09 A3018 RMK A01 T00431093  RH  036%=      5-min Rain = 0
KBY1 121631Z 18010KT 04/M09 A3018 RMK A01 T00431094  RH  036%=      5-min Rain = 0
KBY1 121632Z 19011KT 04/M09 A3018 RMK A01 T00441091  RH  037%=      5-min Rain = 0
KBY1 121633Z 20012KT 04/M09 A3018 RMK A01 T00441094  RH  036%=      5-min Rain = 0
KBY1 121634Z 19012KT 04/M10 A3018 RMK A01 T00411095  RH  037%=      5-min Rain = 0
KBY1 121635Z 19013KT 04/M09 A3018 RMK A01 T00411093  RH  037%=      5-min Rain = 0
KBY1 121636Z 20013KT 04/M09 A3018 RMK A01 T00411093  RH  037%=      5-min Rain = 0
KBY1 121637Z 20011KT 04/M09 A3018 RMK A01 T00411092  RH  037%=      5-min Rain = 0
KBY1 121638Z 19008KT 04/M09 A3018 RMK A01 T00431091  RH  037%=      5-min Rain = 0
KBY1 121639Z 19008KT 04/M09 A3018 RMK A01 T00441090  RH  037%=      5-min Rain = 0
KBY1 121640Z 18008KT 05/M09 A3018 RMK A01 T00461090  RH  037%=      5-min Rain = 0
KBY1 121641Z 17008KT 05/M09 A3018 RMK A01 T00471090  RH  036%=      5-min Rain = 0
KBY1 121642Z 19010KT 05/M09 A3018 RMK A01 T00481090  RH  036%=      5-min Rain = 0
KBY1 121643Z 20009KT 05/M09 A3018 RMK A01 T00481089  RH  036%=      5-min Rain = 0
KBY1 121644Z 19011KT 05/M09 A3018 RMK A01 T00491088  RH  036%=      5-min Rain = 0
KBY1 121645Z 19011KT 05/M09 A3018 RMK A01 T00491088  RH  036%=      5-min Rain = 0
KBY1 121646Z 19010KT 05/M09 A3018 RMK A01 T00481089  RH  036%=      5-min Rain = 0
KBY1 121647Z 20010KT 05/M09 A3018 RMK A01 T00491088  RH  037%=      5-min Rain = 0
KBY1 121648Z 20010KT 05/M09 A3018 RMK A01 T00511085  RH  037%=      5-min Rain = 0
KBY1 121649Z 21009KT 05/M09 A3018 RMK A01 T00531086  RH  036%=      5-min Rain = 0
KBY1 121650Z 21010KT 05/M09 A3018 RMK A01 T00511087  RH  036%=      5-min Rain = 0
KBY1 121651Z 21013KT 05/M09 A3018 RMK A01 T00511086  RH  037%=      5-min Rain = 0
KBY1 121652Z 21011KT 05/M09 A3018 RMK A01 T00511086  RH  037%=      5-min Rain = 0
KBY1 121653Z 20010KT 05/M08 A3018 RMK A01 T00511084  RH  037%=      5-min Rain = 0
KBY1 121654Z 20012KT 05/M09 A3018 RMK A01 T00521085  RH  036%=      5-min Rain = 0
KBY1 121655Z 20011KT 05/M09 A3018 RMK A01 T00511086  RH  036%=      5-min Rain = 0
KBY1 121656Z 21012KT 05/M09 A3018 RMK A01 T00511085  RH  037%=      5-min Rain = 0
KBY1 121657Z 20010KT 05/M09 A3018 RMK A01 T00511085  RH  037%=      5-min Rain = 0
KBY1 121658Z 21013KT 05/M09 A3018 RMK A01 T00511085  RH  037%=      5-min Rain = 0
KBY1 121659Z 21015KT 05/M09 A3018 RMK A01 T00521085  RH  037%=      5-min Rain = 0
KBY1 121700Z 20012KT 05/M08 A3018 RMK A01 T00521084  RH  037%=      5-min Rain = 0
KBY1 121701Z 20012KT 05/M08 A3018 RMK A01 T00521084  RH  037%=      5-min Rain = 0
KBY1 121702Z 20008KT 05/M08 A3018 RMK A01 T00521083  RH  037%=      5-min Rain = 0
KBY1 121703Z 20009KT 06/M08 A3018 RMK A01 T00561080  RH  037%=      5-min Rain = 0
KBY1 121704Z 20010KT 06/M08 A3018 RMK A01 T00581082  RH  036%=      5-min Rain = 0
KBY1 121705Z 22012KT 06/M08 A3018 RMK A01 T00601082  RH  036%=      5-min Rain = 0
KBY1 121706Z 21012KT 06/M08 A3017 RMK A01 T00581084  RH  035%=      5-min Rain = 0
KBY1 121707Z 20011KT 06/M08 A3017 RMK A01 T00561083  RH  036%=      5-min Rain = 0
KBY1 121708Z 20012KT 06/M08 A3017 RMK A01 T00571083  RH  036%=      5-min Rain = 0
KBY1 121709Z 20013KT 06/M08 A3017 RMK A01 T00571083  RH  036%=      5-min Rain = 0
KBY1 121710Z 20013KT 06/M08 A3017 RMK A01 T00551084  RH  036%=      5-min Rain = 0
KBY1 121711Z 21013KT 06/M08 A3017 RMK A01 T00551082  RH  036%=      5-min Rain = 0
KBY1 121712Z 21011KT 06/M08 A3017 RMK A01 T00561082  RH  036%=      5-min Rain = 0
KBY1 121713Z 22012KT 06/M08 A3017 RMK A01 T00581081  RH  036%=      5-min Rain = 0
KBY1 121714Z 21012KT 06/M08 A3017 RMK A01 T00591081  RH  036%=      5-min Rain = 0
KBY1 121715Z 21011KT 06/M08 A3017 RMK A01 T00591083  RH  035%=      5-min Rain = 0
KBY1 121716Z 22012KT 06/M08 A3017 RMK A01 T00591082  RH  036%=      5-min Rain = 0
KBY1 121717Z 21010KT 06/M08 A3017 RMK A01 T00581082  RH  036%=      5-min Rain = 0
KBY1 121718Z 20009KT 06/M08 A3017 RMK A01 T00581081  RH  036%=      5-min Rain = 0
KBY1 121719Z 20009KT 06/M08 A3017 RMK A01 T00621079  RH  036%=      5-min Rain = 0
KBY1 121720Z 20009KT 06/M08 A3016 RMK A01 T00641079  RH  035%=      5-min Rain = 0
KBY1 121721Z 20010KT 07/M08 A3016 RMK A01 T00661079  RH  035%=      5-min Rain = 0
KBY1 121722Z 19009KT 06/M08 A3016 RMK A01 T00641082  RH  034%=      5-min Rain = 0
KBY1 121723Z 20011KT 06/M08 A3016 RMK A01 T00641081  RH  035%=      5-min Rain = 0
KBY1 121724Z 20012KT 06/M08 A3016 RMK A01 T00641080  RH  035%=      5-min Rain = 0
KBY1 121725Z 20009KT 06/M08 A3016 RMK A01 T00641080  RH  035%=      5-min Rain = 0
KBY1 121726Z 18008KT 06/M08 A3016 RMK A01 T00641080  RH  035%=      5-min Rain = 0
KBY1 121727Z 19010KT 07/M08 A3016 RMK A01 T00651080  RH  035%=      5-min Rain = 0
KBY1 121728Z 20008KT 07/M08 A3016 RMK A01 T00651080  RH  034%=      5-min Rain = 0
KBY1 121729Z 21009KT 06/M08 A3016 RMK A01 T00641081  RH  035%=      5-min Rain = 0
KBY1 121730Z 21008KT 06/M08 A3016 RMK A01 T00631081  RH  035%=      5-min Rain = 0
KBY1 121731Z 20011KT 06/M08 A3015 RMK A01 T00641080  RH  035%=      5-min Rain = 0
KBY1 121732Z 18011KT 07/M08 A3015 RMK A01 T00651081  RH  034%=      5-min Rain = 0
KBY1 121733Z 18009KT 07/M08 A3015 RMK A01 T00671079  RH  035%=      5-min Rain = 0
KBY1 121734Z 19010KT 07/M08 A3015 RMK A01 T00691080  RH  034%=      5-min Rain = 0
KBY1 121735Z 19010KT 07/M08 A3015 RMK A01 T00671081  RH  034%=      5-min Rain = 0
KBY1 121736Z 20009G16KT 07/M08 A3015 RMK A01 T00671080  RH  034%=      5-min Rain = 0
KBY1 121737Z 21015KT 07/M08 A3015 RMK A01 T00681079  RH  034%=      5-min Rain = 0
KBY1 121738Z 19009KT 07/M08 A3015 RMK A01 T00691079  RH  034%=      5-min Rain = 0
KBY1 121739Z 20010KT 07/M08 A3015 RMK A01 T00701079  RH  034%=      5-min Rain = 0
KBY1 121740Z 20011KT 07/M08 A3015 RMK A01 T00691080  RH  034%=      5-min Rain = 0
KBY1 121741Z 20013KT 07/M08 A3015 RMK A01 T00691080  RH  034%=      5-min Rain = 0
KBY1 121742Z 19010KT 07/M08 A3015 RMK A01 T00681080  RH  034%=      5-min Rain = 0
KBY1 121743Z 20010KT 07/M08 A3015 RMK A01 T00701078  RH  034%=      5-min Rain = 0
KBY1 121744Z 19010KT 07/M08 A3015 RMK A01 T00721078  RH  034%=      5-min Rain = 0
KBY1 121745Z 20012KT 07/M08 A3014 RMK A01 T00731078  RH  033%=      5-min Rain = 0
KBY1 121746Z 20013KT 07/M08 A3014 RMK A01 T00731079  RH  033%=      5-min Rain = 0
KBY1 121747Z 20010KT 07/M08 A3014 RMK A01 T00711080  RH  033%=      5-min Rain = 0
KBY1 121748Z 20009KT 07/M08 A3014 RMK A01 T00711079  RH  033%=      5-min Rain = 0
KBY1 121749Z 20012KT 07/M08 A3014 RMK A01 T00721078  RH  033%=      5-min Rain = 0
KBY1 121750Z 20010KT 07/M08 A3014 RMK A01 T00731078  RH  033%=      5-min Rain = 0
KBY1 121751Z 19011KT 08/M08 A3014 RMK A01 T00751077  RH  033%=      5-min Rain = 0
KBY1 121752Z 20011KT 08/M08 A3014 RMK A01 T00751077  RH  033%=      5-min Rain = 0
KBY1 121753Z 20009KT 07/M08 A3014 RMK A01 T00741079  RH  033%=      5-min Rain = 0
KBY1 121754Z 20009KT 07/M08 A3014 RMK A01 T00731078  RH  033%=      5-min Rain = 0
KBY1 121755Z 19012KT 07/M08 A3013 RMK A01 T00721078  RH  033%=      5-min Rain = 0
KBY1 121756Z 18012KT 07/M08 A3013 RMK A01 T00721078  RH  033%=      5-min Rain = 0
KBY1 121757Z 19008KT 07/M08 A3013 RMK A01 T00731079  RH  033%=      5-min Rain = 0
KBY1 121758Z 21011KT 08/M08 A3013 RMK A01 T00751076  RH  033%=      5-min Rain = 0
KBY1 121759Z 20012KT 08/M08 A3013 RMK A01 T00771075  RH  033%=      5-min Rain = 0
KBY1 121800Z 20007KT 08/M08 A3013 RMK A01 T00771077  RH  033%=      5-min Rain = 0
KBY1 121801Z 20008G16KT 08/M08 A3013 RMK A01 T00761076  RH  033%=      5-min Rain = 0
KBY1 121802Z 20011KT 08/M08 A3013 RMK A01 T00771076  RH  033%=      5-min Rain = 0
KBY1 121803Z 19009KT 08/M08 A3013 RMK A01 T00781075  RH  033%=      5-min Rain = 0
KBY1 121804Z 19010KT 08/M08 A3013 RMK A01 T00791076  RH  033%=      5-min Rain = 0
KBY1 121805Z 18008KT 08/M08 A3013 RMK A01 T00781076  RH  033%=      5-min Rain = 0
KBY1 121806Z 19011KT 08/M07 A3013 RMK A01 T00801074  RH  033%=      5-min Rain = 0
KBY1 121807Z 20014KT 08/M08 A3012 RMK A01 T00811075  RH  032%=      5-min Rain = 0
KBY1 121808Z 21012KT 08/M08 A3013 RMK A01 T00801076  RH  032%=      5-min Rain = 0
KBY1 121809Z 22009KT 08/M08 A3013 RMK A01 T00781075  RH  033%=      5-min Rain = 0
KBY1 121810Z 21007KT 08/M08 A3012 RMK A01 T00781075  RH  033%=      5-min Rain = 0
KBY1 121811Z 20006KT 08/M08 A3012 RMK A01 T00781076  RH  033%=      5-min Rain = 0
KBY1 121812Z 22006KT 08/M07 A3012 RMK A01 T00811072  RH  033%=      5-min Rain = 0
KBY1 121813Z 21012KT 09/M07 A3012 RMK A01 T00861071  RH  032%=      5-min Rain = 0
KBY1 121814Z 22011KT 09/M07 A3012 RMK A01 T00871072  RH  032%=      5-min Rain = 0
KBY1 121815Z 22011KT 09/M07 A3012 RMK A01 T00871073  RH  032%=      5-min Rain = 0
KBY1 121816Z 22008KT 09/M07 A3012 RMK A01 T00851074  RH  032%=      5-min Rain = 0
KBY1 121817Z 23010KT 08/M07 A3012 RMK A01 T00831074  RH  032%=      5-min Rain = 0
KBY1 121818Z 22011KT 08/M07 A3012 RMK A01 T00841073  RH  032%=      5-min Rain = 0
KBY1 121819Z 22009KT 09/M07 A3012 RMK A01 T00851073  RH  032%=      5-min Rain = 0
KBY1 121820Z 19007KT 08/M07 A3012 RMK A01 T00831074  RH  032%=      5-min Rain = 0
KBY1 121821Z 20005KT 08/M07 A3012 RMK A01 T00821074  RH  032%=      5-min Rain = 0
KBY1 121822Z 21009KT 08/M07 A3011 RMK A01 T00831072  RH  033%=      5-min Rain = 0
KBY1 121823Z 20007KT 09/M07 A3012 RMK A01 T00851072  RH  032%=      5-min Rain = 0
KBY1 121824Z 20006KT 09/M07 A3012 RMK A01 T00851073  RH  032%=      5-min Rain = 0
KBY1 121825Z 22007KT 09/M07 A3011 RMK A01 T00861071  RH  032%=      5-min Rain = 0
KBY1 121826Z 22006KT 09/M07 A3011 RMK A01 T00871072  RH  032%=      5-min Rain = 0
KBY1 121827Z 20009KT 09/M07 A3011 RMK A01 T00871071  RH  032%=      5-min Rain = 0
KBY1 121828Z 18011KT 09/M07 A3011 RMK A01 T00881071  RH  032%=      5-min Rain = 0
KBY1 121829Z 19010KT 09/M07 A3011 RMK A01 T00881071  RH  032%=      5-min Rain = 0
KBY1 121830Z 19008KT 09/M07 A3011 RMK A01 T00861072  RH  032%=      5-min Rain = 0
KBY1 121831Z 21007KT 09/M07 A3011 RMK A01 T00861071  RH  032%=      5-min Rain = 0
KBY1 121832Z 22006KT 09/M07 A3011 RMK A01 T00891070  RH  032%=      5-min Rain = 0
KBY1 121833Z 22004KT 09/M07 A3011 RMK A01 T00911070  RH  031%=      5-min Rain = 0
KBY1 121834Z 24006G11KT 09/M07 A3011 RMK A01 T00921070  RH  031%=      5-min Rain = 0
KBY1 121835Z 23009KT 09/M07 A301 RMK A01 T00921070  RH  031%=      5-min Rain = 0
KBY1 121836Z 23006KT 09/M07 A301 RMK A01 T00911071  RH  031%=      5-min Rain = 0
KBY1 121837Z 24008KT 09/M07 A301 RMK A01 T00911069  RH  032%=      5-min Rain = 0
KBY1 121838Z 23009KT 09/M07 A301 RMK A01 T00931069  RH  031%=      5-min Rain = 0
KBY1 121839Z 25009KT 09/M07 A301 RMK A01 T00931069  RH  031%=      5-min Rain = 0
KBY1 121840Z 22008KT 09/M07 A301 RMK A01 T00941069  RH  031%=      5-min Rain = 0
KBY1 121841Z 23012KT 10/M07 A301 RMK A01 T00971067  RH  031%=      5-min Rain = 0
KBY1 121842Z 23011KT 10/M07 A301 RMK A01 T00961069  RH  030%=      5-min Rain = 0
KBY1 121843Z 22008KT 09/M07 A301 RMK A01 T00931071  RH  031%=      5-min Rain = 0
KBY1 121844Z 22005KT 09/M07 A301 RMK A01 T00921069  RH  031%=      5-min Rain = 0
KBY1 121845Z 22008KT 09/M07 A301 RMK A01 T00931068  RH  031%=      5-min Rain = 0
KBY1 121846Z 23009KT 09/M07 A301 RMK A01 T00941069  RH  031%=      5-min Rain = 0
KBY1 121847Z 22007KT 09/M07 A301 RMK A01 T00931069  RH  031%=      5-min Rain = 0
KBY1 121848Z 23005KT 10/M07 A301 RMK A01 T00961067  RH  031%=      5-min Rain = 0
KBY1 121849Z 23004KT 10/M07 A3009 RMK A01 T00971068  RH  031%=      5-min Rain = 0
KBY1 121850Z 21007KT 10/M07 A3009 RMK A01 T00981067  RH  031%=      5-min Rain = 0
KBY1 121851Z 21012KT 10/M07 A3009 RMK A01 T00991068  RH  030%=      5-min Rain = 0
KBY1 121852Z 22011KT 10/M07 A3009 RMK A01 T00981068  RH  030%=      5-min Rain = 0
KBY1 121853Z 22009KT 10/M07 A3009 RMK A01 T00971068  RH  031%=      5-min Rain = 0
KBY1 121854Z 23008KT 10/M07 A3009 RMK A01 T00981068  RH  030%=      5-min Rain = 0
KBY1 121855Z 22005KT 10/M07 A3009 RMK A01 T00971068  RH  031%=      5-min Rain = 0
KBY1 121856Z 21006KT 10/M07 A3009 RMK A01 T00971068  RH  031%=      5-min Rain = 0
KBY1 121857Z 19006G11KT 10/M07 A3009 RMK A01 T00981067  RH  031%=      5-min Rain = 0
KBY1 121858Z 19009KT 10/M07 A3009 RMK A01 T01001066  RH  030%=      5-min Rain = 0
KBY1 121859Z 19009KT 10/M07 A3009 RMK A01 T01011066  RH  030%=      5-min Rain = 0
KBY1 121900Z 20009KT 10/M06 A3009 RMK A01 T01041064  RH  030%=      5-min Rain = 0
KBY1 121901Z 22007KT 10/M07 A3009 RMK A01 T01041066  RH  030%=      5-min Rain = 0
KBY1 121902Z 22008KT 10/M07 A3009 RMK A01 T01031066  RH  030%=      5-min Rain = 0
KBY1 121903Z 19008KT 10/M07 A3009 RMK A01 T01031066  RH  030%=      5-min Rain = 0
KBY1 121904Z 19008KT 10/M07 A3009 RMK A01 T01011068  RH  030%=      5-min Rain = 0
KBY1 121905Z 18007KT 10/M07 A3009 RMK A01 T01001066  RH  030%=      5-min Rain = 0
KBY1 121906Z 20009KT 10/M06 A3008 RMK A01 T01031064  RH  030%=      5-min Rain = 0
KBY1 121907Z 21009KT 11/M07 A3008 RMK A01 T01051065  RH  030%=      5-min Rain = 0
KBY1 121908Z 21008KT 10/M07 A3008 RMK A01 T01041067  RH  030%=      5-min Rain = 0
KBY1 121909Z 23008KT 10/M07 A3008 RMK A01 T01031066  RH  030%=      5-min Rain = 0
KBY1 121910Z 24007KT 10/M07 A3008 RMK A01 T01021067  RH  030%=      5-min Rain = 0
KBY1 121911Z 21004KT 10/M07 A3008 RMK A01 T01011067  RH  030%=      5-min Rain = 0
KBY1 121912Z 20009KT 10/M07 A3008 RMK A01 T01021066  RH  030%=      5-min Rain = 0
KBY1 121913Z 20007KT 10/M07 A3008 RMK A01 T01031066  RH  030%=      5-min Rain = 0
KBY1 121914Z 20007KT 10/M07 A3008 RMK A01 T01031065  RH  030%=      5-min Rain = 0
KBY1 121915Z 20006KT 11/M06 A3008 RMK A01 T01061064  RH  030%=      5-min Rain = 0
KBY1 121916Z 18010KT 11/M06 A3008 RMK A01 T01091063  RH  029%=      5-min Rain = 0
KBY1 121917Z 18009KT 11/M07 A3008 RMK A01 T01091065  RH  029%=      5-min Rain = 0
KBY1 121918Z 19011KT 11/M07 A3008 RMK A01 T01071065  RH  029%=      5-min Rain = 0
KBY1 121919Z 18010KT 11/M07 A3008 RMK A01 T01061066  RH  029%=      5-min Rain = 0
KBY1 121920Z 18008KT 10/M07 A3008 RMK A01 T01041066  RH  030%=      5-min Rain = 0
KBY1 121921Z 18008KT 10/M07 A3008 RMK A01 T01041066  RH  030%=      5-min Rain = 0
KBY1 121922Z 19010KT 11/M07 A3008 RMK A01 T01051066  RH  029%=      5-min Rain = 0
KBY1 121923Z 21010KT 11/M07 A3007 RMK A01 T01051065  RH  029%=      5-min Rain = 0
KBY1 121924Z 19010KT 11/M07 A3008 RMK A01 T01051065  RH  030%=      5-min Rain = 0
KBY1 121925Z 18008KT 11/M07 A3008 RMK A01 T01061066  RH  029%=      5-min Rain = 0
KBY1 121926Z 18008KT 10/M07 A3008 RMK A01 T01041066  RH  030%=      5-min Rain = 0
KBY1 121927Z 21008KT 11/M07 A3008 RMK A01 T01051065  RH  029%=      5-min Rain = 0
KBY1 121928Z 18008KT 11/M07 A3007 RMK A01 T01051067  RH  029%=      5-min Rain = 0
KBY1 121929Z 18006KT 10/M07 A3008 RMK A01 T01041066  RH  030%=      5-min Rain = 0
KBY1 121930Z 18005KT 11/M07 A3007 RMK A01 T01051066  RH  030%=      5-min Rain = 0
KBY1 121931Z 19006KT 11/M07 A3007 RMK A01 T01061066  RH  029%=      5-min Rain = 0
KBY1 121932Z 23007KT 11/M07 A3007 RMK A01 T01061066  RH  029%=      5-min Rain = 0
KBY1 121933Z 23009KT 11/M07 A3007 RMK A01 T01071065  RH  029%=      5-min Rain = 0
KBY1 121934Z 23007KT 11/M07 A3007 RMK A01 T01071066  RH  029%=      5-min Rain = 0
KBY1 121935Z 23006KT 11/M07 A3007 RMK A01 T01061066  RH  029%=      5-min Rain = 0
KBY1 121936Z 22009KT 11/M07 A3007 RMK A01 T01061066  RH  029%=      5-min Rain = 0
KBY1 121937Z 22007KT 11/M07 A3007 RMK A01 T01081065  RH  029%=      5-min Rain = 0
KBY1 121938Z 21008KT 11/M06 A3007 RMK A01 T01101064  RH  029%=      5-min Rain = 0
KBY1 121939Z 22009KT 11/M06 A3007 RMK A01 T01121063  RH  029%=      5-min Rain = 0
KBY1 121940Z 22006KT 11/M07 A3007 RMK A01 T01101066  RH  028%=      5-min Rain = 0
KBY1 121941Z 24007KT 11/M07 A3007 RMK A01 T01091065  RH  029%=      5-min Rain = 0
KBY1 121942Z 26008KT 11/M06 A3007 RMK A01 T01091064  RH  029%=      5-min Rain = 0
KBY1 121943Z 21007KT 11/M06 A3007 RMK A01 T01111063  RH  029%=      5-min Rain = 0
KBY1 121944Z 23008KT 11/M06 A3007 RMK A01 T01131063  RH  029%=      5-min Rain = 0
KBY1 121945Z 24006KT 11/M06 A3007 RMK A01 T01141064  RH  028%=      5-min Rain = 0
KBY1 121946Z 20006KT 11/M06 A3007 RMK A01 T01131064  RH  028%=      5-min Rain = 0
KBY1 121947Z 19007KT 11/M06 A3007 RMK A01 T01121064  RH  028%=      5-min Rain = 0
KBY1 121948Z 19006KT 11/M06 A3007 RMK A01 T01111064  RH  029%=      5-min Rain = 0
KBY1 121949Z 20006KT 11/M06 A3006 RMK A01 T01111064  RH  029%=      5-min Rain = 0
KBY1 121950Z 23007KT 11/M06 A3006 RMK A01 T01121063  RH  029%=      5-min Rain = 0
KBY1 121951Z 22008KT 11/M06 A3006 RMK A01 T01121063  RH  029%=      5-min Rain = 0
KBY1 121952Z 18009KT 11/M06 A3006 RMK A01 T01141062  RH  029%=      5-min Rain = 0
KBY1 121953Z 17007KT 12/M06 A3006 RMK A01 T01151062  RH  028%=      5-min Rain = 0
KBY1 121954Z 18004KT 12/M06 A3006 RMK A01 T01161062  RH  028%=      5-min Rain = 0
KBY1 121955Z 22005KT 12/M06 A3006 RMK A01 T01171062  RH  028%=      5-min Rain = 0
KBY1 121956Z 24007KT 12/M06 A3006 RMK A01 T01191061  RH  028%=      5-min Rain = 0
KBY1 121957Z 24005KT 12/M06 A3006 RMK A01 T01191062  RH  028%=      5-min Rain = 0
KBY1 121958Z 21011KT 12/M06 A3006 RMK A01 T01201061  RH  028%=      5-min Rain = 0
KBY1 121959Z 21007KT 12/M06 A3006 RMK A01 T01191063  RH  027%=      5-min Rain = 0
KBY1 122000Z 20005KT 12/M06 A3006 RMK A01 T01171062  RH  028%=      5-min Rain = 0
KBY1 122001Z 23006KT 12/M06 A3006 RMK A01 T01191060  RH  028%=      5-min Rain = 0
KBY1 122002Z 22006KT 12/M06 A3006 RMK A01 T01181063  RH  028%=      5-min Rain = 0
KBY1 122003Z 23008KT 12/M06 A3006 RMK A01 T01181061  RH  028%=      5-min Rain = 0
KBY1 122004Z 23008KT 12/M06 A3006 RMK A01 T01191061  RH  028%=      5-min Rain = 0
KBY1 122005Z 24004KT 12/M06 A3006 RMK A01 T01181061  RH  028%=      5-min Rain = 0
KBY1 122006Z 25004KT 12/M06 A3006 RMK A01 T01181062  RH  028%=      5-min Rain = 0
KBY1 122007Z 22005G11KT 12/M06 A3006 RMK A01 T01181061  RH  028%=      5-min Rain = 0
KBY1 122008Z 21006KT 12/M06 A3006 RMK A01 T01201060  RH  028%=      5-min Rain = 0
KBY1 122009Z 21003KT 12/M06 A3006 RMK A01 T01191061  RH  028%=      5-min Rain = 0
KBY1 122010Z 21006KT 12/M06 A3006 RMK A01 T01201060  RH  028%=      5-min Rain = 0
KBY1 122011Z 21007KT 12/M06 A3006 RMK A01 T01211060  RH  028%=      5-min Rain = 0
KBY1 122012Z 19007KT 12/M06 A3006 RMK A01 T01231059  RH  028%=      5-min Rain = 0
KBY1 122013Z 19008KT 13/M06 A3006 RMK A01 T01261057  RH  027%=      5-min Rain = 0
KBY1 122014Z 19008KT 13/M06 A3006 RMK A01 T01291057  RH  027%=      5-min Rain = 0
KBY1 122015Z 19006KT 13/M06 A3006 RMK A01 T01271060  RH  027%=      5-min Rain = 0
KBY1 122016Z 19004KT 12/M06 A3006 RMK A01 T01231062  RH  027%=      5-min Rain = 0
KBY1 122017Z 21004KT 12/M06 A3006 RMK A01 T01221060  RH  028%=      5-min Rain = 0
KBY1 122018Z 24004KT 12/M06 A3006 RMK A01 T01241059  RH  027%=      5-min Rain = 0
KBY1 122019Z 24005KT 12/M06 A3005 RMK A01 T01241060  RH  027%=      5-min Rain = 0
KBY1 122020Z 22007KT 12/M06 A3005 RMK A01 T01231061  RH  027%=      5-min Rain = 0
KBY1 122021Z 23005KT 12/M06 A3005 RMK A01 T01221061  RH  027%=      5-min Rain = 0
KBY1 122022Z 24008KT 12/M06 A3005 RMK A01 T01221060  RH  027%=      5-min Rain = 0
KBY1 122023Z 24008KT 12/M06 A3005 RMK A01 T01241059  RH  027%=      5-min Rain = 0
KBY1 122024Z 22005KT 13/M06 A3005 RMK A01 T01261058  RH  027%=      5-min Rain = 0
KBY1 122025Z 22005KT 13/M06 A3005 RMK A01 T01271058  RH  027%=      5-min Rain = 0
KBY1 122026Z 21005KT 13/M06 A3005 RMK A01 T01271059  RH  027%=      5-min Rain = 0
KBY1 122027Z 20010KT 13/M06 A3006 RMK A01 T01261058  RH  027%=      5-min Rain = 0
KBY1 122028Z 18006KT 13/M06 A3006 RMK A01 T01271058  RH  027%=      5-min Rain = 0
KBY1 122029Z 19006KT 13/M06 A3006 RMK A01 T01271058  RH  027%=      5-min Rain = 0
KBY1 122030Z 20005KT 13/M06 A3006 RMK A01 T01261058  RH  027%=      5-min Rain = 0
KBY1 122031Z 18004KT 13/M06 A3006 RMK A01 T01271057  RH  027%=      5-min Rain = 0
KBY1 122032Z 20008KT 13/M06 A3005 RMK A01 T01291057  RH  027%=      5-min Rain = 0
KBY1 122033Z 20008KT 13/M06 A3005 RMK A01 T01301058  RH  027%=      5-min Rain = 0
KBY1 122034Z 18007KT 13/M06 A3005 RMK A01 T01281058  RH  027%=      5-min Rain = 0
KBY1 122035Z 19008KT 13/M06 A3005 RMK A01 T01281057  RH  027%=      5-min Rain = 0
KBY1 122036Z 19006KT 13/M06 A3005 RMK A01 T01271059  RH  027%=      5-min Rain = 0
KBY1 122037Z 20010KT 13/M06 A3005 RMK A01 T01271057  RH  027%=      5-min Rain = 0
KBY1 122038Z 18006KT 13/M06 A3005 RMK A01 T01291058  RH  027%=      5-min Rain = 0
KBY1 122039Z 17007KT 13/M06 A3005 RMK A01 T01281058  RH  027%=      5-min Rain = 0
KBY1 122040Z 18006KT 13/M06 A3005 RMK A01 T01291057  RH  027%=      5-min Rain = 0
KBY1 122041Z 17004KT 13/M06 A3005 RMK A01 T01301059  RH  026%=      5-min Rain = 0
KBY1 122042Z 13005KT 13/M06 A3005 RMK A01 T01281058  RH  027%=      5-min Rain = 0
KBY1 122043Z 17004KT 13/M06 A3005 RMK A01 T01281058  RH  027%=      5-min Rain = 0
KBY1 122044Z 11002KT 13/M06 A3005 RMK A01 T01291059  RH  027%=      5-min Rain = 0
KBY1 122045Z 25005KT 13/M06 A3005 RMK A01 T01291059  RH  027%=      5-min Rain = 0
KBY1 122046Z 23006KT 13/M06 A3005 RMK A01 T01301059  RH  026%=      5-min Rain = 0
KBY1 122047Z 21007KT 13/M06 A3005 RMK A01 T01301059  RH  026%=      5-min Rain = 0
KBY1 122048Z 19006KT 13/M06 A3005 RMK A01 T01301058  RH  026%=      5-min Rain = 0
KBY1 122049Z 18006KT 13/M06 A3005 RMK A01 T01311058  RH  026%=      5-min Rain = 0
KBY1 122050Z 18004KT 13/M06 A3005 RMK A01 T01311059  RH  026%=      5-min Rain = 0
KBY1 122051Z 15006KT 13/M06 A3005 RMK A01 T01311058  RH  026%=      5-min Rain = 0
KBY1 122052Z 15004KT 13/M06 A3005 RMK A01 T01311058  RH  026%=      5-min Rain = 0
KBY1 122053Z 14002KT 13/M06 A3005 RMK A01 T01301059  RH  026%=      5-min Rain = 0
KBY1 122054Z 11001KT 13/M06 A3005 RMK A01 T01301058  RH  026%=      5-min Rain = 0
KBY1 122055Z 11001KT 13/M06 A3005 RMK A01 T01321057  RH  026%=      5-min Rain = 0
KBY1 122056Z 20001KT 13/M06 A3005 RMK A01 T01331057  RH  026%=      5-min Rain = 0
KBY1 122057Z 23003KT 13/M06 A3005 RMK A01 T01341058  RH  026%=      5-min Rain = 0
KBY1 122058Z 20004KT 13/M06 A3005 RMK A01 T01331058  RH  026%=      5-min Rain = 0
KBY1 122059Z 23007KT 13/M06 A3005 RMK A01 T01311059  RH  026%=      5-min Rain = 0
KBY1 122100Z 23005KT 13/M06 A3005 RMK A01 T01301058  RH  027%=      5-min Rain = 0
KBY1 122101Z 19004KT 13/M06 A3005 RMK A01 T01291058  RH  027%=      5-min Rain = 0
KBY1 122102Z 19004KT 13/M06 A3005 RMK A01 T01311057  RH  027%=      5-min Rain = 0
KBY1 122103Z 19005KT 13/M06 A3005 RMK A01 T01321056  RH  027%=      5-min Rain = 0
KBY1 122104Z 20005KT 13/M06 A3005 RMK A01 T01331056  RH  026%=      5-min Rain = 0
KBY1 122105Z 21005KT 14/M06 A3005 RMK A01 T01351055  RH  026%=      5-min Rain = 0
KBY1 122106Z 23004KT 14/M06 A3005 RMK A01 T01351056  RH  026%=      5-min Rain = 0
KBY1 122107Z 21003KT 14/M06 A3005 RMK A01 T01351056  RH  026%=      5-min Rain = 0
KBY1 122108Z 21001KT 14/M06 A3005 RMK A01 T01351056  RH  026%=      5-min Rain = 0
KBY1 122109Z 26001KT 14/M06 A3005 RMK A01 T01361056  RH  026%=      5-min Rain = 0
KBY1 122110Z 20003KT 14/M06 A3005 RMK A01 T01391055  RH  026%=      5-min Rain = 0
KBY1 122111Z 21002KT 14/M06 A3005 RMK A01 T01391056  RH  025%=      5-min Rain = 0
KBY1 122112Z 32000KT 14/M06 A3005 RMK A01 T01371058  RH  025%=      5-min Rain = 0
KBY1 122113Z 06000KT 14/M06 A3005 RMK A01 T01361058  RH  026%=      5-min Rain = 0
KBY1 122114Z 14001KT 14/M06 A3005 RMK A01 T01361057  RH  026%=      5-min Rain = 0
KBY1 122115Z 13001KT 14/M06 A3005 RMK A01 T01371056  RH  026%=      5-min Rain = 0
KBY1 122116Z 18005KT 14/M06 A3005 RMK A01 T01391056  RH  025%=      5-min Rain = 0
KBY1 122117Z 18005KT 14/M06 A3005 RMK A01 T01401056  RH  025%=      5-min Rain = 0
KBY1 122118Z 21003KT 14/M06 A3005 RMK A01 T01401057  RH  025%=      5-min Rain = 0
KBY1 122119Z 18006KT 14/M06 A3005 RMK A01 T01391056  RH  025%=      5-min Rain = 0
KBY1 122120Z 21003KT 14/M06 A3005 RMK A01 T01401057  RH  025%=      5-min Rain = 0
KBY1 122121Z 17001KT 14/M06 A3005 RMK A01 T01381058  RH  025%=      5-min Rain = 0
KBY1 122122Z 09001KT 14/M06 A3005 RMK A01 T01381057  RH  025%=      5-min Rain = 0
KBY1 122123Z 18002KT 14/M06 A3005 RMK A01 T01381057  RH  025%=      5-min Rain = 0
KBY1 122124Z 17005KT 14/M06 A3005 RMK A01 T01381058  RH  025%=      5-min Rain = 0
KBY1 122125Z 13003KT 14/M06 A3005 RMK A01 T01391058  RH  025%=      5-min Rain = 0
KBY1 122126Z 12003KT 14/M06 A3005 RMK A01 T01391059  RH  025%=      5-min Rain = 0
KBY1 122127Z 13002KT 14/M06 A3005 RMK A01 T01381059  RH  025%=      5-min Rain = 0
KBY1 122128Z 18005KT 14/M06 A3005 RMK A01 T01391057  RH  025%=      5-min Rain = 0
KBY1 122129Z 16005KT 14/M06 A3005 RMK A01 T01401058  RH  025%=      5-min Rain = 0
KBY1 122130Z 15004KT 14/M06 A3005 RMK A01 T01401058  RH  025%=      5-min Rain = 0
KBY1 122131Z 15004KT 14/M06 A3005 RMK A01 T01401058  RH  025%=      5-min Rain = 0
KBY1 122132Z 17002KT 14/M06 A3005 RMK A01 T01401058  RH  025%=      5-min Rain = 0
KBY1 122133Z 19002KT 14/M06 A3005 RMK A01 T01421057  RH  025%=      5-min Rain = 0
KBY1 122134Z 11003KT 14/M06 A3005 RMK A01 T01441056  RH  025%=      5-min Rain = 0
KBY1 122135Z 16005KT 15/M06 A3005 RMK A01 T01451056  RH  024%=      5-min Rain = 0
KBY1 122136Z 18006KT 15/M06 A3005 RMK A01 T01451056  RH  025%=      5-min Rain = 0
KBY1 122137Z 19003KT 15/M06 A3005 RMK A01 T01451057  RH  024%=      5-min Rain = 0
KBY1 122138Z 19002KT 14/M06 A3005 RMK A01 T01441057  RH  024%=      5-min Rain = 0
KBY1 122139Z 18001KT 15/M06 A3005 RMK A01 T01451056  RH  024%=      5-min Rain = 0
KBY1 122140Z 19000KT 15/M06 A3005 RMK A01 T01471056  RH  024%=      5-min Rain = 0
KBY1 122141Z 16001KT 15/M06 A3005 RMK A01 T01461057  RH  024%=      5-min Rain = 0
KBY1 122142Z 20001KT 15/M06 A3005 RMK A01 T01481056  RH  024%=      5-min Rain = 0
KBY1 122143Z 23001KT 15/M06 A3005 RMK A01 T01491056  RH  024%=      5-min Rain = 0
KBY1 122144Z 11000KT 15/M06 A3005 RMK A01 T01491056  RH  024%=      5-min Rain = 0
KBY1 122145Z 08003KT 15/M06 A3005 RMK A01 T01471057  RH  024%=      5-min Rain = 0
KBY1 122146Z 10003KT 14/M06 A3006 RMK A01 T01441058  RH  024%=      5-min Rain = 0
KBY1 122147Z 12003KT 14/M06 A3006 RMK A01 T01411058  RH  025%=      5-min Rain = 0
KBY1 122148Z 12003KT 14/M06 A3006 RMK A01 T01401058  RH  025%=      5-min Rain = 0
KBY1 122149Z 11002KT 14/M06 A3006 RMK A01 T01401057  RH  025%=      5-min Rain = 0
KBY1 122150Z 10001KT 14/M06 A3006 RMK A01 T01401058  RH  025%=      5-min Rain = 0
KBY1 122151Z 06000KT 14/M06 A3006 RMK A01 T01411057  RH  025%=      5-min Rain = 0
KBY1 122152Z 07002KT 14/M06 A3006 RMK A01 T01431057  RH  025%=      5-min Rain = 0
KBY1 122153Z 07004KT 14/M06 A3006 RMK A01 T01431057  RH  024%=      5-min Rain = 0
KBY1 122154Z 13006KT 14/M06 A3006 RMK A01 T01421057  RH  025%=      5-min Rain = 0
KBY1 122155Z 15004KT 14/M06 A3006 RMK A01 T01421057  RH  025%=      5-min Rain = 0
KBY1 122156Z 16004KT 14/M06 A3006 RMK A01 T01421057  RH  025%=      5-min Rain = 0
KBY1 122157Z 16005KT 14/M06 A3006 RMK A01 T01431058  RH  024%=      5-min Rain = 0
KBY1 122158Z 16004KT 14/M06 A3006 RMK A01 T01441057  RH  024%=      5-min Rain = 0
KBY1 122159Z 17004KT 14/M06 A3006 RMK A01 T01441058  RH  024%=      5-min Rain = 0
KBY1 122200Z 17004KT 15/M06 A3006 RMK A01 T01451058  RH  024%=      5-min Rain = 0
KBY1 122201Z 18003KT 15/M06 A3006 RMK A01 T01451058  RH  024%=      5-min Rain = 0
KBY1 122202Z 21002KT 14/M06 A3006 RMK A01 T01441058  RH  024%=      5-min Rain = 0
KBY1 122203Z 19004KT 15/M06 A3006 RMK A01 T01451057  RH  024%=      5-min Rain = 0
KBY1 122204Z 18004KT 15/M06 A3007 RMK A01 T01461057  RH  024%=      5-min Rain = 0
KBY1 122205Z 17002KT 15/M06 A3007 RMK A01 T01461057  RH  024%=      5-min Rain = 0
KBY1 122206Z 14002KT 15/M06 A3007 RMK A01 T01481057  RH  024%=      5-min Rain = 0
KBY1 122207Z 11002KT 15/M06 A3007 RMK A01 T01481057  RH  024%=      5-min Rain = 0
KBY1 122208Z 14001KT 15/M06 A3007 RMK A01 T01461058  RH  024%=      5-min Rain = 0
KBY1 122209Z 11001KT 15/M06 A3007 RMK A01 T01461058  RH  024%=      5-min Rain = 0
KBY1 122210Z 10001KT 15/M06 A3007 RMK A01 T01461057  RH  024%=      5-min Rain = 0
KBY1 122211Z 02000KT 15/M06 A3007 RMK A01 T01461057  RH  024%=      5-min Rain = 0
KBY1 122212Z 03001KT 15/M06 A3007 RMK A01 T01461058  RH  024%=      5-min Rain = 0
KBY1 122213Z 01001KT 15/M06 A3007 RMK A01 T01451059  RH  024%=      5-min Rain = 0
KBY1 122214Z 01001KT 14/M06 A3007 RMK A01 T01441059  RH  024%=      5-min Rain = 0
KBY1 122215Z 03002KT 15/M06 A3007 RMK A01 T01451057  RH  024%=      5-min Rain = 0
KBY1 122216Z 02001KT 15/M06 A3007 RMK A01 T01461057  RH  024%=      5-min Rain = 0
KBY1 122217Z 27002KT 15/M06 A3007 RMK A01 T01481056  RH  024%=      5-min Rain = 0
KBY1 122218Z 29003KT 15/M06 A3007 RMK A01 T01501057  RH  024%=      5-min Rain = 0
KBY1 122219Z 29002KT 15/M06 A3008 RMK A01 T01491058  RH  023%=      5-min Rain = 0
KBY1 122220Z 32002KT 15/M06 A3008 RMK A01 T01481058  RH  024%=      5-min Rain = 0
KBY1 122221Z 33002KT 15/M06 A3008 RMK A01 T01471059  RH  024%=      5-min Rain = 0
KBY1 122222Z 33001KT 15/M06 A3008 RMK A01 T01461059  RH  024%=      5-min Rain = 0
KBY1 122223Z 36001KT 15/M06 A3008 RMK A01 T01451059  RH  024%=      5-min Rain = 0
KBY1 122224Z 01002KT 15/M06 A3008 RMK A01 T01461058  RH  024%=      5-min Rain = 0
KBY1 122225Z 04001KT 15/M06 A3008 RMK A01 T01461059  RH  024%=      5-min Rain = 0
KBY1 122226Z 01000KT 14/M06 A3008 RMK A01 T01441059  RH  024%=      5-min Rain = 0
KBY1 122227Z 02001KT 14/M06 A3008 RMK A01 T01431059  RH  024%=      5-min Rain = 0
KBY1 122228Z 07001KT 14/M06 A3008 RMK A01 T01421058  RH  024%=      5-min Rain = 0
KBY1 122229Z 09003KT 14/M06 A3008 RMK A01 T01421058  RH  025%=      5-min Rain = 0
KBY1 122230Z 11002KT 14/M06 A3008 RMK A01 T01411058  RH  025%=      5-min Rain = 0
KBY1 122231Z 13002KT 14/M06 A3008 RMK A01 T01401058  RH  025%=      5-min Rain = 0
KBY1 122232Z 11002KT 14/M06 A3008 RMK A01 T01401058  RH  025%=      5-min Rain = 0
KBY1 122233Z 10003KT 14/M06 A3008 RMK A01 T01391058  RH  025%=      5-min Rain = 0
KBY1 122234Z 10003KT 14/M06 A3008 RMK A01 T01391058  RH  025%=      5-min Rain = 0
KBY1 122235Z 11003KT 14/M06 A3008 RMK A01 T01381058  RH  025%=      5-min Rain = 0
KBY1 122236Z 12003KT 14/M06 A3008 RMK A01 T01371058  RH  025%=      5-min Rain = 0
KBY1 122237Z 12002KT 14/M06 A3009 RMK A01 T01371059  RH  025%=      5-min Rain = 0
KBY1 122238Z 10002KT 14/M06 A3009 RMK A01 T01361059  RH  025%=      5-min Rain = 0
KBY1 122239Z 07002KT 14/M06 A3009 RMK A01 T01361058  RH  026%=      5-min Rain = 0
KBY1 122240Z 08001KT 14/M06 A3009 RMK A01 T01351058  RH  026%=      5-min Rain = 0
KBY1 122241Z 06002KT 14/M06 A3009 RMK A01 T01351059  RH  026%=      5-min Rain = 0
KBY1 122242Z 07001KT 14/M06 A3009 RMK A01 T01351058  RH  026%=      5-min Rain = 0
KBY1 122243Z 05001KT 14/M06 A3009 RMK A01 T01351059  RH  026%=      5-min Rain = 0
KBY1 122244Z 07001KT 14/M06 A3009 RMK A01 T01351059  RH  026%=      5-min Rain = 0
KBY1 122245Z 06001KT 14/M06 A3009 RMK A01 T01351059  RH  026%=      5-min Rain = 0
KBY1 122246Z 06002KT 14/M06 A3009 RMK A01 T01351058  RH  026%=      5-min Rain = 0
KBY1 122247Z 06001KT 14/M06 A3009 RMK A01 T01351058  RH  026%=      5-min Rain = 0
KBY1 122248Z 05001KT 14/M06 A3009 RMK A01 T01351058  RH  026%=      5-min Rain = 0
KBY1 122249Z 06001KT 14/M06 A3009 RMK A01 T01351059  RH  026%=      5-min Rain = 0
KBY1 122250Z 08001KT 14/M06 A3009 RMK A01 T01351059  RH  025%=      5-min Rain = 0
KBY1 122251Z 06001KT 14/M06 A3009 RMK A01 T01351059  RH  025%=      5-min Rain = 0
KBY1 122252Z 05001KT 14/M06 A3009 RMK A01 T01351059  RH  025%=      5-min Rain = 0
KBY1 122253Z 05001KT 14/M06 A3009 RMK A01 T01351059  RH  026%=      5-min Rain = 0
KBY1 122254Z 05000KT 14/M06 A301 RMK A01 T01361058  RH  026%=      5-min Rain = 0
KBY1 122255Z 05001KT 14/M06 A301 RMK A01 T01361058  RH  026%=      5-min Rain = 0
KBY1 122256Z 05001KT 14/M06 A301 RMK A01 T01361057  RH  026%=      5-min Rain = 0
KBY1 122257Z 05001KT 14/M06 A301 RMK A01 T01361057  RH  026%=      5-min Rain = 0
KBY1 122258Z 06001KT 14/M06 A301 RMK A01 T01361058  RH  026%=      5-min Rain = 0
KBY1 122259Z 06002KT 14/M06 A301 RMK A01 T01361058  RH  025%=      5-min Rain = 0
KBY1 122300Z 06001KT 14/M06 A301 RMK A01 T01351059  RH  025%=      5-min Rain = 0
KBY1 122301Z 06001KT 14/M06 A301 RMK A01 T01351059  RH  025%=      5-min Rain = 0
KBY1 122302Z 05002KT 14/M06 A301 RMK A01 T01351058  RH  026%=      5-min Rain = 0
KBY1 122303Z 03003KT 14/M06 A301 RMK A01 T01351056  RH  026%=      5-min Rain = 0
KBY1 122304Z 04004KT 13/M06 A301 RMK A01 T01331057  RH  026%=      5-min Rain = 0
KBY1 122305Z 04005KT 13/M06 A301 RMK A01 T01331058  RH  026%=      5-min Rain = 0
KBY1 122306Z 04005KT 13/M06 A301 RMK A01 T01321058  RH  026%=      5-min Rain = 0
KBY1 122307Z 04005KT 13/M06 A301 RMK A01 T01321058  RH  026%=      5-min Rain = 0
KBY1 122308Z 04004KT 13/M06 A301 RMK A01 T01321058  RH  026%=      5-min Rain = 0
KBY1 122309Z 06003KT 13/M06 A301 RMK A01 T01321058  RH  026%=      5-min Rain = 0
KBY1 122310Z 06004KT 13/M06 A301 RMK A01 T01321058  RH  026%=      5-min Rain = 0
KBY1 122311Z 06003KT 13/M06 A301 RMK A01 T01321058  RH  026%=      5-min Rain = 0
KBY1 122312Z 06004KT 13/M06 A301 RMK A01 T01311058  RH  026%=      5-min Rain = 0
KBY1 122313Z 05005KT 13/M06 A301 RMK A01 T01301058  RH  027%=      5-min Rain = 0
KBY1 122314Z 05004KT 13/M06 A3011 RMK A01 T01291058  RH  027%=      5-min Rain = 0
KBY1 122315Z 05004KT 13/M06 A3011 RMK A01 T01291058  RH  027%=      5-min Rain = 0
KBY1 122316Z 04004KT 13/M06 A3011 RMK A01 T01281058  RH  027%=      5-min Rain = 0
KBY1 122317Z 05004KT 13/M06 A3011 RMK A01 T01271058  RH  027%=      5-min Rain = 0
KBY1 122318Z 04005KT 13/M06 A3011 RMK A01 T01271058  RH  027%=      5-min Rain = 0
KBY1 122319Z 04005KT 13/M06 A3011 RMK A01 T01261058  RH  027%=      5-min Rain = 0
KBY1 122320Z 04006KT 13/M06 A3011 RMK A01 T01261059  RH  027%=      5-min Rain = 0
KBY1 122321Z 04006KT 13/M06 A3011 RMK A01 T01271059  RH  027%=      5-min Rain = 0
KBY1 122322Z 04005KT 13/M06 A3011 RMK A01 T01271059  RH  027%=      5-min Rain = 0
KBY1 122323Z 04006KT 13/M06 A3011 RMK A01 T01271059  RH  027%=      5-min Rain = 0
KBY1 122324Z 04006KT 13/M06 A3011 RMK A01 T01261059  RH  027%=      5-min Rain = 0
KBY1 122325Z 04006KT 13/M06 A3011 RMK A01 T01251059  RH  027%=      5-min Rain = 0
KBY1 122326Z 04006KT 13/M06 A3011 RMK A01 T01251059  RH  027%=      5-min Rain = 0
KBY1 122327Z 05007KT 12/M06 A3011 RMK A01 T01241060  RH  027%=      5-min Rain = 0
KBY1 122328Z 05007KT 12/M06 A3012 RMK A01 T01231061  RH  027%=      5-min Rain = 0
KBY1 122329Z 05007KT 12/M06 A3012 RMK A01 T01231062  RH  027%=      5-min Rain = 0
KBY1 122330Z 05007KT 12/M06 A3012 RMK A01 T01221062  RH  027%=      5-min Rain = 0
KBY1 122331Z 05007KT 12/M06 A3012 RMK A01 T01211062  RH  027%=      5-min Rain = 0
KBY1 122332Z 05006KT 12/M06 A3012 RMK A01 T01201063  RH  027%=      5-min Rain = 0
KBY1 122333Z 05006KT 12/M06 A3012 RMK A01 T01201063  RH  027%=      5-min Rain = 0
KBY1 122334Z 05006KT 12/M06 A3012 RMK A01 T01191063  RH  027%=      5-min Rain = 0
KBY1 122335Z 07007KT 12/M06 A3013 RMK A01 T01181064  RH  027%=      5-min Rain = 0
KBY1 122336Z 06005KT 12/M07 A3013 RMK A01 T01171065  RH  027%=      5-min Rain = 0
KBY1 122337Z 07005KT 12/M07 A3013 RMK A01 T01161065  RH  027%=      5-min Rain = 0
KBY1 122338Z 06005KT 12/M07 A3013 RMK A01 T01161065  RH  028%=      5-min Rain = 0
KBY1 122339Z 06007KT 12/M07 A3013 RMK A01 T01151066  RH  027%=      5-min Rain = 0
KBY1 122340Z 07007KT 12/M07 A3013 RMK A01 T01151066  RH  027%=      5-min Rain = 0
KBY1 122341Z 07008KT 12/M07 A3013 RMK A01 T01151067  RH  027%=      5-min Rain = 0
KBY1 122342Z 07006KT 12/M07 A3013 RMK A01 T01151068  RH  027%=      5-min Rain = 0
KBY1 122343Z 07006KT 11/M07 A3014 RMK A01 T01141068  RH  027%=      5-min Rain = 0
KBY1 122344Z 07007KT 11/M07 A3014 RMK A01 T01141068  RH  027%=      5-min Rain = 0
KBY1 122345Z 06006KT 11/M07 A3014 RMK A01 T01141069  RH  027%=      5-min Rain = 0
KBY1 122346Z 06006KT 11/M07 A3014 RMK A01 T01131068  RH  027%=      5-min Rain = 0
KBY1 122347Z 06006KT 11/M07 A3014 RMK A01 T01121068  RH  028%=      5-min Rain = 0
KBY1 122348Z 06006KT 11/M07 A3014 RMK A01 T01111069  RH  028%=      5-min Rain = 0
KBY1 122349Z 05006KT 11/M07 A3014 RMK A01 T01111069  RH  028%=      5-min Rain = 0
KBY1 122350Z 06006KT 11/M07 A3014 RMK A01 T01101069  RH  028%=      5-min Rain = 0
KBY1 122351Z 06007KT 11/M07 A3015 RMK A01 T01101070  RH  028%=      5-min Rain = 0
KBY1 122352Z 07007KT 11/M07 A3015 RMK A01 T01091070  RH  028%=      5-min Rain = 0
KBY1 122353Z 07007KT 11/M07 A3015 RMK A01 T01091070  RH  028%=      5-min Rain = 0
KBY1 122354Z 07007KT 11/M07 A3015 RMK A01 T01091070  RH  028%=      5-min Rain = 0
KBY1 122355Z 07006KT 11/M07 A3015 RMK A01 T01081071  RH  028%=      5-min Rain = 0
KBY1 122356Z 07007KT 11/M07 A3015 RMK A01 T01081071  RH  028%=      5-min Rain = 0
KBY1 122357Z 07008KT 11/M07 A3016 RMK A01 T01071071  RH  028%=      5-min Rain = 0
KBY1 122358Z 06007KT 11/M07 A3016 RMK A01 T01071072  RH  028%=      5-min Rain = 0
KBY1 122359Z 07006KT 11/M07 A3016 RMK A01 T01071072  RH  028%=      5-min Rain = 0
KBY1 130000Z 07006KT 11/M07 A3016 RMK A01 T01061072  RH  028%=      5-min Rain = 0
KBY1 130001Z 07008KT 11/M07 A3016 RMK A01 T01061072  RH  028%=      5-min Rain = 0
KBY1 130002Z 07006KT 11/M07 A3016 RMK A01 T01061073  RH  028%=      5-min Rain = 0
KBY1 130003Z 07006KT 11/M07 A3016 RMK A01 T01051073  RH  028%=      5-min Rain = 0
KBY1 130004Z 06006KT 11/M07 A3016 RMK A01 T01051072  RH  028%=      5-min Rain = 0
KBY1 130005Z 06006KT 10/M07 A3016 RMK A01 T01041072  RH  028%=      5-min Rain = 0
KBY1 130006Z 06006KT 10/M07 A3017 RMK A01 T01041072  RH  028%=      5-min Rain = 0
KBY1 130007Z 07006KT 10/M07 A3017 RMK A01 T01031072  RH  028%=      5-min Rain = 0
KBY1 130008Z 07007KT 10/M07 A3017 RMK A01 T01021073  RH  029%=      5-min Rain = 0
KBY1 130009Z 07006KT 10/M07 A3017 RMK A01 T01021073  RH  028%=      5-min Rain = 0
KBY1 130010Z 08007KT 10/M07 A3017 RMK A01 T01021073  RH  028%=      5-min Rain = 0
KBY1 130011Z 08007KT 10/M07 A3017 RMK A01 T01021073  RH  028%=      5-min Rain = 0
KBY1 130012Z 08008KT 10/M07 A3017 RMK A01 T01011074  RH  028%=      5-min Rain = 0
KBY1 130013Z 09007KT 10/M07 A3017 RMK A01 T01011074  RH  028%=      5-min Rain = 0
KBY1 130014Z 09008KT 10/M08 A3017 RMK A01 T01001075  RH  028%=      5-min Rain = 0
KBY1 130015Z 10007KT 10/M08 A3017 RMK A01 T01001075  RH  028%=      5-min Rain = 0
KBY1 130016Z 10007KT 10/M08 A3016 RMK A01 T00991075  RH  029%=      5-min Rain = 0
KBY1 130017Z 10007KT 10/M08 A3016 RMK A01 T00991075  RH  029%=      5-min Rain = 0
KBY1 130018Z 10007KT 10/M08 A3016 RMK A01 T00981075  RH  029%=      5-min Rain = 0
KBY1 130019Z 10007KT 10/M08 A3016 RMK A01 T00971075  RH  029%=      5-min Rain = 0
KBY1 130020Z 09007KT 10/M08 A3017 RMK A01 T00971076  RH  029%=      5-min Rain = 0
KBY1 130021Z 08006KT 10/M08 A3017 RMK A01 T00971075  RH  029%=      5-min Rain = 0
KBY1 130022Z 08007KT 10/M08 A3017 RMK A01 T00961076  RH  029%=      5-min Rain = 0
KBY1 130023Z 08007KT 10/M08 A3017 RMK A01 T00951076  RH  029%=      5-min Rain = 0
KBY1 130024Z 08008KT 10/M08 A3017 RMK A01 T00951076  RH  029%=      5-min Rain = 0
KBY1 130025Z 08009KT 10/M08 A3017 RMK A01 T00951076  RH  029%=      5-min Rain = 0
KBY1 130026Z 07007KT 10/M08 A3018 RMK A01 T00951077  RH  029%=      5-min Rain = 0
KBY1 130027Z 07007KT 10/M08 A3018 RMK A01 T00961077  RH  029%=      5-min Rain = 0
KBY1 130028Z 07007KT 10/M08 A3018 RMK A01 T00961077  RH  029%=      5-min Rain = 0
KBY1 130029Z 07007KT 10/M08 A3018 RMK A01 T00951078  RH  029%=      5-min Rain = 0
KBY1 130030Z 08006KT 09/M08 A3018 RMK A01 T00941078  RH  029%=      5-min Rain = 0
KBY1 130031Z 07007KT 09/M08 A3018 RMK A01 T00931078  RH  029%=      5-min Rain = 0
KBY1 130032Z 08008KT 09/M08 A3018 RMK A01 T00921078  RH  029%=      5-min Rain = 0
KBY1 130033Z 08008KT 09/M08 A3018 RMK A01 T00921078  RH  029%=      5-min Rain = 0
KBY1 130034Z 08007KT 09/M08 A3018 RMK A01 T00921078  RH  029%=      5-min Rain = 0
KBY1 130035Z 08008KT 09/M08 A3018 RMK A01 T00921078  RH  029%=      5-min Rain = 0
KBY1 130036Z 08008KT 09/M08 A3019 RMK A01 T00921079  RH  029%=      5-min Rain = 0
KBY1 130037Z 08008KT 09/M08 A3019 RMK A01 T00921079  RH  029%=      5-min Rain = 0
KBY1 130038Z 07009KT 09/M08 A3019 RMK A01 T00921079  RH  029%=      5-min Rain = 0
KBY1 130039Z 07008KT 09/M08 A3019 RMK A01 T00921079  RH  029%=      5-min Rain = 0
KBY1 130040Z 06008KT 09/M08 A3019 RMK A01 T00921079  RH  029%=      5-min Rain = 0
KBY1 130041Z 07008KT 09/M08 A3019 RMK A01 T00911079  RH  029%=      5-min Rain = 0
KBY1 130042Z 06007KT 09/M08 A302 RMK A01 T00901079  RH  030%=      5-min Rain = 0
KBY1 130043Z 07007KT 09/M08 A302 RMK A01 T00891079  RH  030%=      5-min Rain = 0
KBY1 130044Z 07008KT 09/M08 A302 RMK A01 T00891079  RH  030%=      5-min Rain = 0
KBY1 130045Z 08008KT 09/M08 A302 RMK A01 T00881079  RH  030%=      5-min Rain = 0
KBY1 130046Z 07008KT 09/M08 A302 RMK A01 T00881079  RH  030%=      5-min Rain = 0
KBY1 130047Z 07007KT 09/M08 A3021 RMK A01 T00881079  RH  030%=      5-min Rain = 0
KBY1 130048Z 07008KT 09/M08 A3021 RMK A01 T00871079  RH  030%=      5-min Rain = 0
KBY1 130049Z 07009KT 09/M08 A3021 RMK A01 T00871079  RH  030%=      5-min Rain = 0
KBY1 130050Z 08009KT 09/M08 A3021 RMK A01 T00871080  RH  030%=      5-min Rain = 0
KBY1 130051Z 07009KT 09/M08 A3021 RMK A01 T00871080  RH  030%=      5-min Rain = 0
KBY1 130052Z 08010KT 09/M08 A3021 RMK A01 T00871080  RH  030%=      5-min Rain = 0
KBY1 130053Z 08009KT 09/M08 A3021 RMK A01 T00871080  RH  030%=      5-min Rain = 0
KBY1 130054Z 08008KT 09/M08 A3021 RMK A01 T00871081  RH  030%=      5-min Rain = 0
KBY1 130055Z 08010KT 09/M08 A3021 RMK A01 T00871080  RH  030%=      5-min Rain = 0
KBY1 130056Z 08008KT 09/M08 A3021 RMK A01 T00871081  RH  030%=      5-min Rain = 0
KBY1 130057Z 08007KT 09/M08 A3021 RMK A01 T00861081  RH  030%=      5-min Rain = 0
KBY1 130058Z 09008KT 09/M08 A3022 RMK A01 T00861081  RH  030%=      5-min Rain = 0
KBY1 130059Z 08009KT 09/M08 A3022 RMK A01 T00871081  RH  030%=      5-min Rain = 0
KBY1 130100Z 08009KT 09/M08 A3022 RMK A01 T00871082  RH  030%=      5-min Rain = 0
KBY1 130101Z 08008KT 09/M08 A3022 RMK A01 T00871082  RH  029%=      5-min Rain = 0
KBY1 130102Z 08009KT 09/M08 A3022 RMK A01 T00871082  RH  029%=      5-min Rain = 0
KBY1 130103Z 09008KT 09/M08 A3022 RMK A01 T00871081  RH  030%=      5-min Rain = 0
KBY1 130104Z 09009KT 09/M08 A3023 RMK A01 T00871082  RH  029%=      5-min Rain = 0
KBY1 130105Z 08009KT 09/M08 A3023 RMK A01 T00861082  RH  030%=      5-min Rain = 0
KBY1 130106Z 09009KT 09/M08 A3023 RMK A01 T00861082  RH  030%=      5-min Rain = 0
KBY1 130107Z 09010KT 09/M08 A3023 RMK A01 T00861082  RH  030%=      5-min Rain = 0
KBY1 130108Z 09010G15KT 09/M08 A3023 RMK A01 T00861082  RH  030%=      5-min Rain = 0
KBY1 130109Z 09013G18KT 09/M08 A3024 RMK A01 T00851082  RH  030%=      5-min Rain = 0
KBY1 130110Z 10016KT 08/M09 A3024 RMK A01 T00831086  RH  029%=      5-min Rain = 0
KBY1 130111Z 09016KT 08/M09 A3024 RMK A01 T00771091  RH  029%=      5-min Rain = 0
KBY1 130112Z 09018KT 07/M10 A3024 RMK A01 T00711097  RH  029%=      5-min Rain = 0
KBY1 130113Z 08015KT 07/M10 A3025 RMK A01 T00661100  RH  029%=      5-min Rain = 0
KBY1 130114Z 09016KT 06/M10 A3025 RMK A01 T00631100  RH  030%=      5-min Rain = 0
KBY1 130115Z 09013KT 06/M10 A3025 RMK A01 T00611100  RH  030%=      5-min Rain = 0
KBY1 130116Z 09013KT 06/M10 A3025 RMK A01 T00601100  RH  031%=      5-min Rain = 0
KBY1 130117Z 09013KT 06/M10 A3025 RMK A01 T00581101  RH  031%=      5-min Rain = 0
KBY1 130118Z 10012KT 06/M10 A3025 RMK A01 T00581101  RH  031%=      5-min Rain = 0
KBY1 130119Z 09011KT 06/M10 A3026 RMK A01 T00571101  RH  031%=      5-min Rain = 0
KBY1 130120Z 09013KT 06/M10 A3026 RMK A01 T00561101  RH  031%=      5-min Rain = 0
KBY1 130121Z 09011KT 06/M10 A3026 RMK A01 T00551101  RH  032%=      5-min Rain = 0
KBY1 130122Z 09010KT 06/M10 A3026 RMK A01 T00551101  RH  032%=      5-min Rain = 0
KBY1 130123Z 09009KT 05/M10 A3027 RMK A01 T00541100  RH  032%=      5-min Rain = 0
KBY1 130124Z 08009KT 05/M10 A3027 RMK A01 T00541100  RH  032%=      5-min Rain = 0
KBY1 130125Z 08009KT 05/M10 A3027 RMK A01 T00531100  RH  032%=      5-min Rain = 0
KBY1 130126Z 09012KT 05/M10 A3027 RMK A01 T00531101  RH  032%=      5-min Rain = 0
KBY1 130127Z 08012KT 05/M10 A3027 RMK A01 T00521102  RH  032%=      5-min Rain = 0
KBY1 130128Z 09011KT 05/M10 A3028 RMK A01 T00521103  RH  032%=      5-min Rain = 0
KBY1 130129Z 09010KT 05/M10 A3028 RMK A01 T00511103  RH  032%=      5-min Rain = 0
KBY1 130130Z 09009KT 05/M10 A3028 RMK A01 T00511103  RH  032%=      5-min Rain = 0
KBY1 130131Z 08010KT 05/M10 A3028 RMK A01 T00511103  RH  032%=      5-min Rain = 0
KBY1 130132Z 08010KT 05/M10 A3028 RMK A01 T00501104  RH  032%=      5-min Rain = 0
KBY1 130133Z 08008KT 05/M10 A3028 RMK A01 T00501104  RH  032%=      5-min Rain = 0
KBY1 130134Z 09010KT 05/M10 A3029 RMK A01 T00491104  RH  032%=      5-min Rain = 0
KBY1 130135Z 09010KT 05/M11 A3029 RMK A01 T00491105  RH  032%=      5-min Rain = 0
KBY1 130136Z 08010KT 05/M11 A3029 RMK A01 T00491106  RH  032%=      5-min Rain = 0
KBY1 130137Z 08008KT 05/M11 A3029 RMK A01 T00481106  RH  032%=      5-min Rain = 0
KBY1 130138Z 08010KT 05/M11 A3029 RMK A01 T00481106  RH  032%=      5-min Rain = 0
KBY1 130139Z 07011KT 05/M11 A303 RMK A01 T00471106  RH  032%=      5-min Rain = 0
KBY1 130140Z 08010KT 05/M11 A303 RMK A01 T00471107  RH  032%=      5-min Rain = 0
KBY1 130141Z 08009KT 05/M11 A303 RMK A01 T00471107  RH  032%=      5-min Rain = 0
KBY1 130142Z 07008KT 05/M11 A303 RMK A01 T00471106  RH  032%=      5-min Rain = 0
KBY1 130143Z 07009KT 05/M11 A303 RMK A01 T00471106  RH  032%=      5-min Rain = 0
KBY1 130144Z 08009KT 05/M11 A303 RMK A01 T00461107  RH  032%=      5-min Rain = 0
KBY1 130145Z 08011KT 05/M11 A303 RMK A01 T00461107  RH  032%=      5-min Rain = 0
KBY1 130146Z 07010KT 05/M11 A303 RMK A01 T00451108  RH  032%=      5-min Rain = 0
KBY1 130147Z 07010KT 05/M11 A303 RMK A01 T00451109  RH  032%=      5-min Rain = 0
KBY1 130148Z 07009KT 05/M11 A303 RMK A01 T00451109  RH  032%=      5-min Rain = 0
KBY1 130149Z 08008KT 04/M11 A3031 RMK A01 T00441109  RH  032%=      5-min Rain = 0
KBY1 130150Z 07008KT 04/M11 A3031 RMK A01 T00431109  RH  032%=      5-min Rain = 0
KBY1 130151Z 07009KT 04/M11 A3031 RMK A01 T00431110  RH  032%=      5-min Rain = 0
KBY1 130152Z 07008KT 04/M11 A3031 RMK A01 T00421110  RH  032%=      5-min Rain = 0
KBY1 130153Z 08009KT 04/M11 A3031 RMK A01 T00421110  RH  032%=      5-min Rain = 0
KBY1 130154Z 07009KT 04/M11 A3031 RMK A01 T00421110  RH  032%=      5-min Rain = 0
KBY1 130155Z 08010KT 04/M11 A3031 RMK A01 T00411111  RH  032%=      5-min Rain = 0
KBY1 130156Z 07008KT 04/M11 A3031 RMK A01 T00411111  RH  032%=      5-min Rain = 0
KBY1 130157Z 08008KT 04/M11 A3032 RMK A01 T00401111  RH  032%=      5-min Rain = 0
KBY1 130158Z 08007KT 04/M11 A3032 RMK A01 T00401111  RH  032%=      5-min Rain = 0
KBY1 130159Z 08010KT 04/M11 A3032 RMK A01 T00401111  RH  032%=      5-min Rain = 0
KBY1 130200Z 08009KT 04/M11 A3032 RMK A01 T00401111  RH  032%=      5-min Rain = 0
KBY1 130201Z 08008KT 04/M11 A3032 RMK A01 T00401112  RH  032%=      5-min Rain = 0
KBY1 130202Z 08009KT 04/M11 A3032 RMK A01 T00391112  RH  032%=      5-min Rain = 0
KBY1 130203Z 09008KT 04/M11 A3032 RMK A01 T00391112  RH  033%=      5-min Rain = 0
KBY1 130204Z 08009KT 04/M11 A3032 RMK A01 T00391111  RH  033%=      5-min Rain = 0
KBY1 130205Z 09009KT 04/M11 A3032 RMK A01 T00391111  RH  033%=      5-min Rain = 0
KBY1 130206Z 09009KT 04/M11 A3032 RMK A01 T00381112  RH  033%=      5-min Rain = 0
KBY1 130207Z 08009KT 04/M11 A3032 RMK A01 T00381112  RH  033%=      5-min Rain = 0
KBY1 130208Z 09007KT 04/M11 A3032 RMK A01 T00371112  RH  033%=      5-min Rain = 0
KBY1 130209Z 09011KT 04/M11 A3032 RMK A01 T00371111  RH  033%=      5-min Rain = 0
KBY1 130210Z 09009KT 04/M11 A3032 RMK A01 T00371112  RH  033%=      5-min Rain = 0
KBY1 130211Z 09009KT 04/M11 A3032 RMK A01 T00371112  RH  033%=      5-min Rain = 0
KBY1 130212Z 09008KT 04/M11 A3032 RMK A01 T00371113  RH  033%=      5-min Rain = 0
KBY1 130213Z 08009KT 04/M11 A3032 RMK A01 T00361113  RH  033%=      5-min Rain = 0
KBY1 130214Z 09010KT 04/M11 A3032 RMK A01 T00361112  RH  033%=      5-min Rain = 0
KBY1 130215Z 08009KT 04/M11 A3033 RMK A01 T00361112  RH  033%=      5-min Rain = 0
KBY1 130216Z 09008KT 04/M11 A3033 RMK A01 T00351113  RH  033%=      5-min Rain = 0
KBY1 130217Z 09008KT 03/M11 A3033 RMK A01 T00341113  RH  033%=      5-min Rain = 0
KBY1 130218Z 09009KT 03/M11 A3033 RMK A01 T00331113  RH  033%=      5-min Rain = 0
KBY1 130219Z 09009KT 03/M11 A3033 RMK A01 T00331113  RH  033%=      5-min Rain = 0
KBY1 130220Z 09008KT 03/M11 A3033 RMK A01 T00331114  RH  033%=      5-min Rain = 0
KBY1 130221Z 08009KT 03/M11 A3033 RMK A01 T00321114  RH  033%=      5-min Rain = 0
KBY1 130222Z 08009KT 03/M11 A3033 RMK A01 T00311114  RH  034%=      5-min Rain = 0
KBY1 130223Z 08010KT 03/M11 A3033 RMK A01 T00311114  RH  034%=      5-min Rain = 0
KBY1 130224Z 08008KT 03/M11 A3033 RMK A01 T00311114  RH  034%=      5-min Rain = 0
KBY1 130225Z 08009KT 03/M11 A3033 RMK A01 T00311114  RH  034%=      5-min Rain = 0
KBY1 130226Z 08009KT 03/M12 A3033 RMK A01 T00301115  RH  034%=      5-min Rain = 0
KBY1 130227Z 08009KT 03/M12 A3034 RMK A01 T00291115  RH  034%=      5-min Rain = 0
KBY1 130228Z 08007KT 03/M12 A3034 RMK A01 T00291115  RH  034%=      5-min Rain = 0
KBY1 130229Z 08008KT 03/M11 A3033 RMK A01 T00301114  RH  034%=      5-min Rain = 0
KBY1 130230Z 09008KT 03/M12 A3033 RMK A01 T00291115  RH  034%=      5-min Rain = 0
KBY1 130231Z 08009KT 03/M12 A3034 RMK A01 T00291115  RH  034%=      5-min Rain = 0
KBY1 130232Z 09008KT 03/M12 A3034 RMK A01 T00281115  RH  034%=      5-min Rain = 0
KBY1 130233Z 10007KT 03/M12 A3034 RMK A01 T00281115  RH  034%=      5-min Rain = 0
KBY1 130234Z 09008KT 03/M12 A3034 RMK A01 T00281115  RH  034%=      5-min Rain = 0
KBY1 130235Z 10006KT 03/M12 A3034 RMK A01 T00271115  RH  034%=      5-min Rain = 0
KBY1 130236Z 10006KT 03/M12 A3034 RMK A01 T00261116  RH  034%=      5-min Rain = 0
KBY1 130237Z 11005KT 02/M12 A3034 RMK A01 T00241116  RH  035%=      5-min Rain = 0
KBY1 130238Z 10006KT 02/M12 A3034 RMK A01 T00231116  RH  035%=      5-min Rain = 0
KBY1 130239Z 10006KT 02/M12 A3034 RMK A01 T00231116  RH  035%=      5-min Rain = 0
KBY1 130240Z 10006KT 02/M12 A3034 RMK A01 T00221116  RH  035%=      5-min Rain = 0
KBY1 130241Z 10006KT 02/M12 A3034 RMK A01 T00211116  RH  036%=      5-min Rain = 0
KBY1 130242Z 10006KT 02/M12 A3034 RMK A01 T00201116  RH  036%=      5-min Rain = 0
KBY1 130243Z 10006KT 02/M12 A3034 RMK A01 T00191116  RH  036%=      5-min Rain = 0
KBY1 130244Z 10006KT 02/M12 A3034 RMK A01 T00191116  RH  036%=      5-min Rain = 0
KBY1 130245Z 10006KT 02/M12 A3034 RMK A01 T00171116  RH  036%=      5-min Rain = 0
KBY1 130246Z 10006KT 02/M12 A3034 RMK A01 T00161116  RH  037%=      5-min Rain = 0
KBY1 130247Z 10005KT 02/M12 A3034 RMK A01 T00151117  RH  037%=      5-min Rain = 0
KBY1 130248Z 09005KT 01/M12 A3034 RMK A01 T00131117  RH  037%=      5-min Rain = 0
KBY1 130249Z 09005KT 01/M12 A3035 RMK A01 T00121116  RH  038%=      5-min Rain = 0
KBY1 130250Z 08005KT 01/M12 A3035 RMK A01 T00111117  RH  038%=      5-min Rain = 0
KBY1 130251Z 09004KT 01/M12 A3035 RMK A01 T00091117  RH  038%=      5-min Rain = 0
KBY1 130252Z 08004KT 01/M12 A3035 RMK A01 T00091117  RH  039%=      5-min Rain = 0
KBY1 130253Z 07004KT 01/M12 A3035 RMK A01 T00081117  RH  039%=      5-min Rain = 0
KBY1 130254Z 08004KT 01/M12 A3035 RMK A01 T00071117  RH  039%=      5-min Rain = 0
KBY1 130255Z 08005KT 01/M12 A3035 RMK A01 T00071116  RH  039%=      5-min Rain = 0
KBY1 130256Z 08005KT 01/M12 A3035 RMK A01 T00071116  RH  039%=      5-min Rain = 0
KBY1 130257Z 09005KT 01/M12 A3035 RMK A01 T00061117  RH  039%=      5-min Rain = 0
KBY1 130258Z 08005KT 01/M12 A3035 RMK A01 T00071116  RH  039%=      5-min Rain = 0
KBY1 130259Z 09005KT 01/M12 A3035 RMK A01 T00061116  RH  039%=      5-min Rain = 0
KBY1 130300Z 09005KT 01/M12 A3035 RMK A01 T00061116  RH  039%=      5-min Rain = 0
KBY1 130301Z 09004KT 01/M12 A3035 RMK A01 T00071116  RH  039%=      5-min Rain = 0
KBY1 130302Z 10004KT 01/M12 A3035 RMK A01 T00071116  RH  039%=      5-min Rain = 0
KBY1 130303Z 10004KT 01/M12 A3036 RMK A01 T00071116  RH  039%=      5-min Rain = 0
KBY1 130304Z 10004KT 01/M12 A3036 RMK A01 T00071116  RH  039%=      5-min Rain = 0
KBY1 130305Z 10003KT 01/M12 A3036 RMK A01 T00071117  RH  039%=      5-min Rain = 0
KBY1 130306Z 10003KT 01/M12 A3036 RMK A01 T00061117  RH  039%=      5-min Rain = 0
KBY1 130307Z 11003KT 01/M12 A3036 RMK A01 T00061117  RH  039%=      5-min Rain = 0
KBY1 130308Z 11003KT 00/M12 A3036 RMK A01 T00041118  RH  040%=      5-min Rain = 0
KBY1 130309Z 11003KT 00/M12 A3036 RMK A01 T00041118  RH  040%=      5-min Rain = 0
KBY1 130310Z 10003KT 00/M12 A3036 RMK A01 T00031117  RH  040%=      5-min Rain = 0
KBY1 130311Z 09002KT 00/M12 A3036 RMK A01 T00031117  RH  040%=      5-min Rain = 0
KBY1 130312Z 09002KT 00/M12 A3036 RMK A01 T00041117  RH  040%=      5-min Rain = 0
KBY1 130313Z 09002KT 00/M12 A3037 RMK A01 T00041117  RH  040%=      5-min Rain = 0
KBY1 130314Z 09001KT 00/M12 A3037 RMK A01 T00041117  RH  040%=      5-min Rain = 0
KBY1 130315Z 09001KT 00/M12 A3037 RMK A01 T00041117  RH  040%=      5-min Rain = 0
KBY1 130316Z 09001KT 00/M12 A3037 RMK A01 T00041117  RH  040%=      5-min Rain = 0
KBY1 130317Z 10001KT 00/M12 A3037 RMK A01 T00031117  RH  040%=      5-min Rain = 0
KBY1 130318Z 10000KT 00/M12 A3037 RMK A01 T00031117  RH  040%=      5-min Rain = 0
KBY1 130319Z 11000KT 00/M12 A3037 RMK A01 T00031117  RH  040%=      5-min Rain = 0
KBY1 130320Z 11001KT 00/M12 A3037 RMK A01 T00031117  RH  040%=      5-min Rain = 0
KBY1 130321Z 11001KT 00/M12 A3037 RMK A01 T00031117  RH  040%=      5-min Rain = 0
KBY1 130322Z 11002KT 00/M12 A3037 RMK A01 T00021117  RH  040%=      5-min Rain = 0
KBY1 130323Z 10002KT 00/M12 A3037 RMK A01 T00021117  RH  040%=      5-min Rain = 0
KBY1 130324Z 11002KT 00/M12 A3037 RMK A01 T00031116  RH  040%=      5-min Rain = 0
KBY1 130325Z 11002KT 00/M12 A3037 RMK A01 T00031116  RH  040%=      5-min Rain = 0
KBY1 130326Z 12002KT 00/M12 A3037 RMK A01 T00031116  RH  040%=      5-min Rain = 0
KBY1 130327Z 11003KT 00/M12 A3037 RMK A01 T00031117  RH  040%=      5-min Rain = 0
KBY1 130328Z 11002KT 00/M12 A3037 RMK A01 T00031116  RH  040%=      5-min Rain = 0
KBY1 130329Z 12002KT 00/M12 A3037 RMK A01 T00031116  RH  040%=      5-min Rain = 0
KBY1 130330Z 11002KT 00/M12 A3037 RMK A01 T00021117  RH  040%=      5-min Rain = 0
KBY1 130331Z 11003KT 00/M12 A3037 RMK A01 T00011118  RH  040%=      5-min Rain = 0
KBY1 130332Z 10002KT 00/12 A3037 RMK A01 T00000-119  RH  040%=      5-min Rain = 0
KBY1 130333Z 10003KT 00/12 A3038 RMK A01 T00-00-119  RH  041%=      5-min Rain = 0
KBY1 130334Z 11003KT M00/M12 A3038 RMK A01 T10011119  RH  041%=      5-min Rain = 0
KBY1 130335Z 11002KT M00/M12 A3038 RMK A01 T10021120  RH  041%=      5-min Rain = 0
KBY1 130336Z 11002KT M00/M12 A3037 RMK A01 T10031120  RH  041%=      5-min Rain = 0
KBY1 130337Z 11002KT M00/M12 A3037 RMK A01 T10041120  RH  041%=      5-min Rain = 0
KBY1 130338Z 10002KT M01/M12 A3037 RMK A01 T10051120  RH  041%=      5-min Rain = 0
KBY1 130339Z 10002KT M01/M12 A3037 RMK A01 T10051120  RH  042%=      5-min Rain = 0
KBY1 130340Z 10002KT M01/M12 A3038 RMK A01 T10061120  RH  042%=      5-min Rain = 0
KBY1 130341Z 10002KT M01/M12 A3038 RMK A01 T10061120  RH  042%=      5-min Rain = 0
KBY1 130342Z 11003KT M01/M12 A3038 RMK A01 T10071120  RH  042%=      5-min Rain = 0
KBY1 130343Z 11003KT M01/M12 A3038 RMK A01 T10071120  RH  042%=      5-min Rain = 0
KBY1 130344Z 11003KT M01/M12 A3038 RMK A01 T10071120  RH  042%=      5-min Rain = 0
KBY1 130345Z 11003KT M01/M12 A3038 RMK A01 T10071120  RH  042%=      5-min Rain = 0
KBY1 130346Z 11003KT M01/M12 A3038 RMK A01 T10071119  RH  042%=      5-min Rain = 0
KBY1 130347Z 11003KT M01/M12 A3038 RMK A01 T10071119  RH  042%=      5-min Rain = 0
KBY1 130348Z 10003KT M01/M12 A3038 RMK A01 T10071120  RH  042%=      5-min Rain = 0
KBY1 130349Z 10002KT M01/M12 A3038 RMK A01 T10081121  RH  042%=      5-min Rain = 0
KBY1 130350Z 10002KT M01/M12 A3038 RMK A01 T10101122  RH  042%=      5-min Rain = 0
KBY1 130351Z 10002KT M01/M12 A3038 RMK A01 T10111122  RH  043%=      5-min Rain = 0
KBY1 130352Z 10002KT M01/M12 A3038 RMK A01 T10121122  RH  043%=      5-min Rain = 0
KBY1 130353Z 10002KT M01/M12 A3038 RMK A01 T10131122  RH  043%=      5-min Rain = 0
KBY1 130354Z 10002KT M01/M12 A3038 RMK A01 T10141122  RH  044%=      5-min Rain = 0
KBY1 130355Z 09002KT M01/M12 A3038 RMK A01 T10141121  RH  044%=      5-min Rain = 0
KBY1 130356Z 08002KT M01/M12 A3038 RMK A01 T10141121  RH  044%=      5-min Rain = 0
KBY1 130357Z 08002KT M01/M12 A3038 RMK A01 T10141121  RH  044%=      5-min Rain = 0
KBY1 130358Z 08003KT M01/M12 A3038 RMK A01 T10141121  RH  044%=      5-min Rain = 0
KBY1 130359Z 08003KT M01/M12 A3038 RMK A01 T10141121  RH  044%=      5-min Rain = 0
KBY1 130400Z 08003KT M01/M12 A3038 RMK A01 T10141120  RH  044%=      5-min Rain = 0
KBY1 130401Z 08003KT M01/M12 A3038 RMK A01 T10141120  RH  044%=      5-min Rain = 0
KBY1 130402Z 08003KT M01/M12 A3038 RMK A01 T10141119  RH  045%=      5-min Rain = 0
KBY1 130403Z 08003KT M02/M12 A3038 RMK A01 T10151120  RH  045%=      5-min Rain = 0
KBY1 130404Z 08003KT M02/M12 A3039 RMK A01 T10161120  RH  045%=      5-min Rain = 0
KBY1 130405Z 08003KT M02/M12 A3039 RMK A01 T10161120  RH  045%=      5-min Rain = 0
KBY1 130406Z 08003KT M02/M12 A3039 RMK A01 T10171119  RH  045%=      5-min Rain = 0
KBY1 130407Z 08003KT M02/M12 A3039 RMK A01 T10171119  RH  046%=      5-min Rain = 0
KBY1 130408Z 08003KT M02/M12 A3039 RMK A01 T10161119  RH  045%=      5-min Rain = 0
KBY1 130409Z 08003KT M02/M12 A3039 RMK A01 T10161119  RH  045%=      5-min Rain = 0
KBY1 130410Z 08003KT M02/M12 A3039 RMK A01 T10151119  RH  045%=      5-min Rain = 0
KBY1 130411Z 08003KT M02/M12 A3039 RMK A01 T10151119  RH  045%=      5-min Rain = 0
KBY1 130412Z 07003KT M02/M12 A3039 RMK A01 T10151120  RH  045%=      5-min Rain = 0
KBY1 130413Z 07002KT M02/M12 A3039 RMK A01 T10151121  RH  044%=      5-min Rain = 0
KBY1 130414Z 07002KT M01/M12 A3039 RMK A01 T10141120  RH  044%=      5-min Rain = 0
KBY1 130415Z 07001KT M01/M12 A3039 RMK A01 T10131119  RH  044%=      5-min Rain = 0
KBY1 130416Z 07001KT M01/M12 A3039 RMK A01 T10121119  RH  044%=      5-min Rain = 0
KBY1 130417Z 07002KT M01/M12 A3039 RMK A01 T10101119  RH  044%=      5-min Rain = 0
KBY1 130418Z 07002KT M01/M12 A3039 RMK A01 T10081118  RH  043%=      5-min Rain = 0
KBY1 130419Z 06002KT M01/M12 A3039 RMK A01 T10071119  RH  043%=      5-min Rain = 0
KBY1 130420Z 07003KT M01/M12 A3039 RMK A01 T10061119  RH  042%=      5-min Rain = 0
KBY1 130421Z 08002KT M01/M12 A3039 RMK A01 T10071120  RH  042%=      5-min Rain = 0
KBY1 130422Z 09002KT M01/M12 A304 RMK A01 T10071120  RH  042%=      5-min Rain = 0
KBY1 130423Z 09002KT M01/M12 A304 RMK A01 T10071120  RH  042%=      5-min Rain = 0
KBY1 130424Z 08002KT M01/M12 A304 RMK A01 T10071121  RH  042%=      5-min Rain = 0
KBY1 130425Z 08002KT M01/M12 A304 RMK A01 T10081121  RH  042%=      5-min Rain = 0
KBY1 130426Z 08002KT M01/M12 A304 RMK A01 T10081120  RH  042%=      5-min Rain = 0
KBY1 130427Z 07002KT M01/M12 A304 RMK A01 T10091121  RH  042%=      5-min Rain = 0
KBY1 130428Z 07002KT M01/M12 A304 RMK A01 T10091120  RH  042%=      5-min Rain = 0
KBY1 130429Z 07002KT M01/M12 A304 RMK A01 T10091120  RH  042%=      5-min Rain = 0
KBY1 130430Z 06002KT M01/M12 A304 RMK A01 T10091121  RH  042%=      5-min Rain = 0
KBY1 130431Z 05002KT M01/M12 A304 RMK A01 T10101121  RH  042%=      5-min Rain = 0
KBY1 130432Z 04002KT M01/M12 A304 RMK A01 T10101121  RH  043%=      5-min Rain = 0
KBY1 130433Z 05002KT M01/M12 A304 RMK A01 T10101121  RH  043%=      5-min Rain = 0
KBY1 130434Z 05002KT M01/M12 A304 RMK A01 T10101122  RH  043%=      5-min Rain = 0
KBY1 130435Z 05002KT M01/M12 A304 RMK A01 T10111122  RH  043%=      5-min Rain = 0
KBY1 130436Z 06002KT M01/M12 A304 RMK A01 T10111122  RH  043%=      5-min Rain = 0
KBY1 130437Z 06002KT M01/M12 A304 RMK A01 T10101121  RH  043%=      5-min Rain = 0
KBY1 130438Z 06003KT M01/M12 A304 RMK A01 T10101122  RH  042%=      5-min Rain = 0
KBY1 130439Z 06003KT M01/M12 A304 RMK A01 T10101122  RH  042%=      5-min Rain = 0
KBY1 130440Z 06003KT M01/M12 A304 RMK A01 T10111123  RH  042%=      5-min Rain = 0
KBY1 130441Z 06002KT M01/M12 A304 RMK A01 T10111123  RH  043%=      5-min Rain = 0
KBY1 130442Z 05002KT M01/M12 A304 RMK A01 T10121123  RH  043%=      5-min Rain = 0
KBY1 130443Z 05002KT M01/M12 A3041 RMK A01 T10131123  RH  043%=      5-min Rain = 0
KBY1 130444Z 04002KT M01/M12 A3041 RMK A01 T10121122  RH  043%=      5-min Rain = 0
KBY1 130445Z 05002KT M01/M12 A3041 RMK A01 T10121123  RH  043%=      5-min Rain = 0
KBY1 130446Z 05003KT M01/M12 A3041 RMK A01 T10121123  RH  043%=      5-min Rain = 0
KBY1 130447Z 05003KT M01/M12 A3041 RMK A01 T10131123  RH  043%=      5-min Rain = 0
KBY1 130448Z 05003KT M01/M12 A3041 RMK A01 T10141124  RH  043%=      5-min Rain = 0
KBY1 130449Z 05003KT M02/M12 A3041 RMK A01 T10151124  RH  043%=      5-min Rain = 0
KBY1 130450Z 05003KT M02/M13 A3041 RMK A01 T10161125  RH  043%=      5-min Rain = 0
KBY1 130451Z 05003KT M02/M12 A3041 RMK A01 T10171124  RH  044%=      5-min Rain = 0
KBY1 130452Z 05003KT M02/M12 A3041 RMK A01 T10171124  RH  044%=      5-min Rain = 0
KBY1 130453Z 05003KT M02/M12 A3041 RMK A01 T10171124  RH  044%=      5-min Rain = 0
KBY1 130454Z 05002KT M02/M12 A3041 RMK A01 T10171124  RH  044%=      5-min Rain = 0
KBY1 130455Z 04002KT M02/M13 A3041 RMK A01 T10181125  RH  044%=      5-min Rain = 0
KBY1 130456Z 04002KT M02/M13 A3041 RMK A01 T10241129  RH  044%=      5-min Rain = 0
KBY1 130457Z 03002KT M03/M13 A3041 RMK A01 T10271129  RH  045%=      5-min Rain = 0
KBY1 130458Z 04002KT M03/M13 A3041 RMK A01 T10291128  RH  046%=      5-min Rain = 0
KBY1 130459Z 03002KT M03/M13 A3041 RMK A01 T10291126  RH  047%=      5-min Rain = 0
KBY1 130500Z 03002KT M03/M12 A3041 RMK A01 T10271124  RH  047%=      5-min Rain = 0
KBY1 130501Z 03002KT M03/M12 A3041 RMK A01 T10261124  RH  047%=      5-min Rain = 0
KBY1 130502Z 03002KT M03/M12 A3041 RMK A01 T10251124  RH  047%=      5-min Rain = 0
KBY1 130503Z 03002KT M03/M12 A3041 RMK A01 T10251124  RH  046%=      5-min Rain = 0
KBY1 130504Z 03001KT M02/M12 A3041 RMK A01 T10241124  RH  046%=      5-min Rain = 0
KBY1 130505Z 03001KT M02/M12 A3042 RMK A01 T10241124  RH  046%=      5-min Rain = 0
KBY1 130506Z 04001KT M02/M13 A3042 RMK A01 T10241125  RH  046%=      5-min Rain = 0
KBY1 130507Z 03001KT M03/M13 A3042 RMK A01 T10251125  RH  046%=      5-min Rain = 0
KBY1 130508Z 03001KT M03/M13 A3042 RMK A01 T10251125  RH  046%=      5-min Rain = 0
KBY1 130509Z 01000KT M03/M13 A3042 RMK A01 T10261126  RH  046%=      5-min Rain = 0
KBY1 130510Z 01001KT M03/M13 A3042 RMK A01 T10271126  RH  046%=      5-min Rain = 0
KBY1 130511Z 01002KT M03/M13 A3042 RMK A01 T10281127  RH  047%=      5-min Rain = 0
KBY1 130512Z 00001KT M03/M13 A3042 RMK A01 T10301128  RH  047%=      5-min Rain = 0
KBY1 130513Z 00001KT M03/M13 A3042 RMK A01 T10311128  RH  047%=      5-min Rain = 0
KBY1 130514Z 34001KT M03/M13 A3042 RMK A01 T10321128  RH  048%=      5-min Rain = 0
KBY1 130515Z 35001KT M03/M13 A3042 RMK A01 T10331127  RH  048%=      5-min Rain = 0
KBY1 130516Z 35002KT M03/M13 A3042 RMK A01 T10331127  RH  048%=      5-min Rain = 0
KBY1 130517Z 35002KT M03/M13 A3042 RMK A01 T10331127  RH  048%=      5-min Rain = 0
KBY1 130518Z 35002KT M03/M13 A3042 RMK A01 T10331128  RH  048%=      5-min Rain = 0
KBY1 130519Z 00002KT M03/M13 A3043 RMK A01 T10341129  RH  048%=      5-min Rain = 0
KBY1 130520Z 01002KT M04/M13 A3042 RMK A01 T10361130  RH  048%=      5-min Rain = 0
KBY1 130521Z 02002KT M04/M13 A3042 RMK A01 T10361129  RH  049%=      5-min Rain = 0
KBY1 130522Z 02002KT M04/M13 A3042 RMK A01 T10371129  RH  049%=      5-min Rain = 0
KBY1 130523Z 01003KT M04/M13 A3042 RMK A01 T10371128  RH  049%=      5-min Rain = 0
KBY1 130524Z 02002KT M04/M13 A3042 RMK A01 T10381129  RH  049%=      5-min Rain = 0
KBY1 130525Z 01001KT M04/M13 A3042 RMK A01 T10371128  RH  049%=      5-min Rain = 0
KBY1 130526Z 02001KT M04/M13 A3042 RMK A01 T10351127  RH  049%=      5-min Rain = 0
KBY1 130527Z 00001KT M03/M13 A3043 RMK A01 T10341127  RH  049%=      5-min Rain = 0
KBY1 130528Z 01001KT M03/M13 A3043 RMK A01 T10331127  RH  048%=      5-min Rain = 0
KBY1 130529Z 01001KT M03/M13 A3043 RMK A01 T10331128  RH  048%=      5-min Rain = 0
KBY1 130530Z 01000KT M03/M13 A3043 RMK A01 T10331128  RH  048%=      5-min Rain = 0
KBY1 130531Z 09000KT M03/M13 A3043 RMK A01 T10341129  RH  048%=      5-min Rain = 0
KBY1 130532Z 10001KT M04/M13 A3043 RMK A01 T10351130  RH  048%=      5-min Rain = 0
KBY1 130533Z 10000KT M04/M13 A3043 RMK A01 T10361130  RH  048%=      5-min Rain = 0
KBY1 130534Z 00000KT M04/M13 A3043 RMK A01 T10371131  RH  048%=      5-min Rain = 0
KBY1 130535Z 00000KT M04/M13 A3043 RMK A01 T10391131  RH  049%=      5-min Rain = 0
KBY1 130536Z 00000KT M04/M13 A3043 RMK A01 T10401131  RH  049%=      5-min Rain = 0
KBY1 130537Z 00000KT M04/M13 A3043 RMK A01 T10421131  RH  050%=      5-min Rain = 0
KBY1 130538Z 00000KT M04/M13 A3043 RMK A01 T10421130  RH  050%=      5-min Rain = 0
KBY1 130539Z 00000KT M04/M13 A3043 RMK A01 T10421130  RH  051%=      5-min Rain = 0
KBY1 130540Z 00000KT M04/M13 A3043 RMK A01 T10441132  RH  050%=      5-min Rain = 0
KBY1 130541Z 00000KT M05/M13 A3043 RMK A01 T10461133  RH  051%=      5-min Rain = 0
KBY1 130542Z 00000KT M05/M13 A3043 RMK A01 T10481134  RH  051%=      5-min Rain = 0
KBY1 130543Z 00000KT M05/M13 A3043 RMK A01 T10491133  RH  052%=      5-min Rain = 0
KBY1 130544Z 00000KT M05/M13 A3043 RMK A01 T10491132  RH  052%=      5-min Rain = 0
KBY1 130545Z 00000KT M05/M13 A3043 RMK A01 T10491133  RH  052%=      5-min Rain = 0
KBY1 130546Z 00000KT M05/M13 A3043 RMK A01 T10491133  RH  052%=      5-min Rain = 0
KBY1 130547Z 00000KT M05/M13 A3043 RMK A01 T10501133  RH  052%=      5-min Rain = 0
KBY1 130548Z 00000KT M05/M13 A3043 RMK A01 T10501131  RH  053%=      5-min Rain = 0
KBY1 130549Z 00000KT M05/M13 A3043 RMK A01 T10481129  RH  053%=      5-min Rain = 0
KBY1 130550Z 00000KT M05/M13 A3043 RMK A01 T10471130  RH  052%=      5-min Rain = 0
KBY1 130551Z 00000KT M05/M13 A3043 RMK A01 T10461130  RH  052%=      5-min Rain = 0
KBY1 130552Z 00000KT M04/M13 A3043 RMK A01 T10441128  RH  052%=      5-min Rain = 0
KBY1 130553Z 03001KT M04/M13 A3043 RMK A01 T10421128  RH  051%=      5-min Rain = 0
KBY1 130554Z 03001KT M04/M13 A3044 RMK A01 T10411129  RH  050%=      5-min Rain = 0
KBY1 130555Z 03000KT M04/M13 A3044 RMK A01 T10431133  RH  050%=      5-min Rain = 0
KBY1 130556Z 02001KT M05/M13 A3044 RMK A01 T10451133  RH  050%=      5-min Rain = 0
KBY1 130557Z 01003KT M05/M13 A3044 RMK A01 T10461132  RH  051%=      5-min Rain = 0
KBY1 130558Z 36003KT M05/M13 A3043 RMK A01 T10451130  RH  051%=      5-min Rain = 0
KBY1 130559Z 35003KT M04/M13 A3043 RMK A01 T10441130  RH  051%=      5-min Rain = 0

Page generated in 0.0804 seconds.